Observation data for Mertzon on 09/12/2017      Previous  Date  Next       Current Mesonet Observations  Soil Data  Daily Summary Page  Observations in Plain Language
KME1 120500Z 22001KT 15/12 A3009 RMK A01 T01480122  RH  084%=      5-min Rain = 0
KME1 120501Z 22001KT 15/12 A3009 RMK A01 T01480122  RH  084%=      5-min Rain = 0
KME1 120502Z 22001KT 15/12 A3009 RMK A01 T01480122  RH  085%=      5-min Rain = 0
KME1 120503Z 22001KT 15/12 A3009 RMK A01 T01480123  RH  085%=      5-min Rain = 0
KME1 120504Z 22001KT 15/12 A3009 RMK A01 T01480124  RH  085%=      5-min Rain = 0
KME1 120505Z 22001KT 15/12 A3009 RMK A01 T01480123  RH  085%=      5-min Rain = 0
KME1 120506Z 22000KT 15/12 A3009 RMK A01 T01470119  RH  083%=      5-min Rain = 0
KME1 120507Z 00000KT 15/12 A3009 RMK A01 T01470118  RH  083%=      5-min Rain = 0
KME1 120508Z 00000KT 15/12 A3009 RMK A01 T01470117  RH  083%=      5-min Rain = 0
KME1 120509Z 00000KT 15/12 A3009 RMK A01 T01460116  RH  082%=      5-min Rain = 0
KME1 120510Z 00000KT 15/12 A3009 RMK A01 T01460116  RH  082%=      5-min Rain = 0
KME1 120511Z 00000KT 15/12 A3009 RMK A01 T01460116  RH  082%=      5-min Rain = 0
KME1 120512Z 00000KT 15/12 A3009 RMK A01 T01460116  RH  082%=      5-min Rain = 0
KME1 120513Z 00000KT 15/12 A3009 RMK A01 T01460116  RH  082%=      5-min Rain = 0
KME1 120514Z 00000KT 15/12 A3009 RMK A01 T01460116  RH  082%=      5-min Rain = 0
KME1 120515Z 22000KT 15/12 A3008 RMK A01 T01460117  RH  083%=      5-min Rain = 0
KME1 120516Z 22000KT 15/12 A3008 RMK A01 T01460118  RH  083%=      5-min Rain = 0
KME1 120517Z 00000KT 15/12 A3008 RMK A01 T01460119  RH  084%=      5-min Rain = 0
KME1 120518Z 22001KT 15/12 A3008 RMK A01 T01460119  RH  084%=      5-min Rain = 0
KME1 120519Z 22001KT 15/12 A3008 RMK A01 T01460120  RH  084%=      5-min Rain = 0
KME1 120520Z 22001KT 15/12 A3008 RMK A01 T01460119  RH  084%=      5-min Rain = 0
KME1 120521Z 00000KT 15/12 A3008 RMK A01 T01450119  RH  084%=      5-min Rain = 0
KME1 120522Z 00000KT 15/12 A3008 RMK A01 T01450118  RH  084%=      5-min Rain = 0
KME1 120523Z 00000KT 15/12 A3008 RMK A01 T01450118  RH  084%=      5-min Rain = 0
KME1 120524Z 00000KT 14/12 A3008 RMK A01 T01440117  RH  084%=      5-min Rain = 0
KME1 120525Z 00000KT 14/12 A3008 RMK A01 T01440116  RH  084%=      5-min Rain = 0
KME1 120526Z 00000KT 14/12 A3008 RMK A01 T01430116  RH  083%=      5-min Rain = 0
KME1 120527Z 00000KT 14/12 A3008 RMK A01 T01430115  RH  084%=      5-min Rain = 0
KME1 120528Z 00000KT 14/11 A3008 RMK A01 T01420114  RH  083%=      5-min Rain = 0
KME1 120529Z 00000KT 14/11 A3008 RMK A01 T01420114  RH  083%=      5-min Rain = 0
KME1 120530Z 00000KT 14/11 A3008 RMK A01 T01420114  RH  083%=      5-min Rain = 0
KME1 120531Z 00000KT 14/11 A3008 RMK A01 T01410113  RH  083%=      5-min Rain = 0
KME1 120532Z 22000KT 14/11 A3008 RMK A01 T01410113  RH  083%=      5-min Rain = 0
KME1 120533Z 21001KT 14/11 A3008 RMK A01 T01400113  RH  084%=      5-min Rain = 0
KME1 120534Z 21001KT 14/11 A3008 RMK A01 T01390113  RH  084%=      5-min Rain = 0
KME1 120535Z 21001KT 14/11 A3008 RMK A01 T01390112  RH  084%=      5-min Rain = 0
KME1 120536Z 21001KT 14/11 A3008 RMK A01 T01380112  RH  084%=      5-min Rain = 0
KME1 120537Z 21000KT 14/11 A3008 RMK A01 T01380112  RH  084%=      5-min Rain = 0
KME1 120538Z 00000KT 14/11 A3008 RMK A01 T01380112  RH  085%=      5-min Rain = 0
KME1 120539Z 00000KT 14/11 A3008 RMK A01 T01370112  RH  085%=      5-min Rain = 0
KME1 120540Z 00000KT 14/11 A3008 RMK A01 T01370112  RH  084%=      5-min Rain = 0
KME1 120541Z 00000KT 14/11 A3008 RMK A01 T01370111  RH  084%=      5-min Rain = 0
KME1 120542Z 00000KT 14/11 A3008 RMK A01 T01370111  RH  084%=      5-min Rain = 0
KME1 120543Z 00000KT 14/11 A3008 RMK A01 T01370112  RH  084%=      5-min Rain = 0
KME1 120544Z 00000KT 14/11 A3008 RMK A01 T01380112  RH  085%=      5-min Rain = 0
KME1 120545Z 00000KT 14/11 A3008 RMK A01 T01380112  RH  085%=      5-min Rain = 0
KME1 120546Z 00000KT 14/11 A3008 RMK A01 T01380112  RH  085%=      5-min Rain = 0
KME1 120547Z 00000KT 14/11 A3008 RMK A01 T01380113  RH  085%=      5-min Rain = 0
KME1 120548Z 00000KT 14/11 A3008 RMK A01 T01380113  RH  085%=      5-min Rain = 0
KME1 120549Z 00000KT 14/11 A3008 RMK A01 T01380113  RH  085%=      5-min Rain = 0
KME1 120550Z 00000KT 14/11 A3008 RMK A01 T01380113  RH  085%=      5-min Rain = 0
KME1 120551Z 00000KT 14/11 A3008 RMK A01 T01370113  RH  085%=      5-min Rain = 0
KME1 120552Z 00000KT 14/11 A3008 RMK A01 T01370112  RH  085%=      5-min Rain = 0
KME1 120553Z 00000KT 14/11 A3008 RMK A01 T01370112  RH  085%=      5-min Rain = 0
KME1 120554Z 00000KT 14/11 A3008 RMK A01 T01360111  RH  085%=      5-min Rain = 0
KME1 120555Z 00000KT 14/11 A3008 RMK A01 T01360111  RH  085%=      5-min Rain = 0
KME1 120556Z 00000KT 14/11 A3008 RMK A01 T01360110  RH  085%=      5-min Rain = 0
KME1 120557Z 00000KT 14/11 A3008 RMK A01 T01360111  RH  085%=      5-min Rain = 0
KME1 120558Z 00000KT 14/11 A3008 RMK A01 T01350110  RH  085%=      5-min Rain = 0
KME1 120559Z 00000KT 14/11 A3008 RMK A01 T01360111  RH  085%=      5-min Rain = 0
KME1 120600Z 00000KT 14/11 A3008 RMK A01 T01350111  RH  086%=      5-min Rain = 0
KME1 120601Z 00000KT 14/11 A3008 RMK A01 T01350112  RH  086%=      5-min Rain = 0
KME1 120602Z 00000KT 14/11 A3008 RMK A01 T01350111  RH  086%=      5-min Rain = 0
KME1 120603Z 00000KT 13/11 A3008 RMK A01 T01340111  RH  086%=      5-min Rain = 0
KME1 120604Z 00000KT 14/11 A3008 RMK A01 T01350111  RH  086%=      5-min Rain = 0
KME1 120605Z 00000KT 14/11 A3008 RMK A01 T01350111  RH  086%=      5-min Rain = 0
KME1 120606Z 00000KT 13/11 A3007 RMK A01 T01340113  RH  087%=      5-min Rain = 0
KME1 120607Z 00000KT 14/11 A3007 RMK A01 T01350113  RH  087%=      5-min Rain = 0
KME1 120608Z 00000KT 14/11 A3007 RMK A01 T01350113  RH  087%=      5-min Rain = 0
KME1 120609Z 00000KT 14/11 A3007 RMK A01 T01350113  RH  087%=      5-min Rain = 0
KME1 120610Z 21000KT 13/11 A3007 RMK A01 T01340113  RH  087%=      5-min Rain = 0
KME1 120611Z 21000KT 13/11 A3007 RMK A01 T01340113  RH  087%=      5-min Rain = 0
KME1 120612Z 21001KT 13/11 A3007 RMK A01 T01340113  RH  087%=      5-min Rain = 0
KME1 120613Z 21001KT 14/11 A3007 RMK A01 T01350113  RH  087%=      5-min Rain = 0
KME1 120614Z 21001KT 13/11 A3007 RMK A01 T01340112  RH  086%=      5-min Rain = 0
KME1 120615Z 21001KT 14/11 A3007 RMK A01 T01350112  RH  086%=      5-min Rain = 0
KME1 120616Z 21002KT 14/11 A3007 RMK A01 T01360112  RH  085%=      5-min Rain = 0
KME1 120617Z 21002KT 14/11 A3007 RMK A01 T01370111  RH  084%=      5-min Rain = 0
KME1 120618Z 21002KT 14/11 A3007 RMK A01 T01380111  RH  084%=      5-min Rain = 0
KME1 120619Z 22003KT 14/11 A3007 RMK A01 T01380111  RH  083%=      5-min Rain = 0
KME1 120620Z 21003KT 14/11 A3007 RMK A01 T01390111  RH  083%=      5-min Rain = 0
KME1 120621Z 21003KT 14/11 A3007 RMK A01 T01390111  RH  083%=      5-min Rain = 0
KME1 120622Z 21003KT 14/11 A3007 RMK A01 T01390110  RH  083%=      5-min Rain = 0
KME1 120623Z 21003KT 14/11 A3007 RMK A01 T01390111  RH  083%=      5-min Rain = 0
KME1 120624Z 22003KT 14/11 A3007 RMK A01 T01390111  RH  083%=      5-min Rain = 0
KME1 120625Z 22003KT 14/11 A3007 RMK A01 T01390111  RH  083%=      5-min Rain = 0
KME1 120626Z 22004KT 14/11 A3007 RMK A01 T01390110  RH  083%=      5-min Rain = 0
KME1 120627Z 22004KT 14/11 A3007 RMK A01 T01380110  RH  083%=      5-min Rain = 0
KME1 120628Z 22003KT 14/11 A3007 RMK A01 T01380111  RH  083%=      5-min Rain = 0
KME1 120629Z 22003KT 14/11 A3007 RMK A01 T01380110  RH  083%=      5-min Rain = 0
KME1 120630Z 22003KT 14/11 A3007 RMK A01 T01380109  RH  083%=      5-min Rain = 0
KME1 120631Z 22003KT 14/11 A3007 RMK A01 T01370109  RH  083%=      5-min Rain = 0
KME1 120632Z 22003KT 14/11 A3007 RMK A01 T01370110  RH  083%=      5-min Rain = 0
KME1 120633Z 22003KT 14/11 A3007 RMK A01 T01370110  RH  083%=      5-min Rain = 0
KME1 120634Z 22003KT 14/11 A3007 RMK A01 T01370109  RH  083%=      5-min Rain = 0
KME1 120635Z 22003KT 14/11 A3007 RMK A01 T01370109  RH  083%=      5-min Rain = 0
KME1 120636Z 22003KT 14/11 A3007 RMK A01 T01360109  RH  084%=      5-min Rain = 0
KME1 120637Z 22003KT 14/11 A3007 RMK A01 T01360110  RH  084%=      5-min Rain = 0
KME1 120638Z 22003KT 14/11 A3007 RMK A01 T01360110  RH  084%=      5-min Rain = 0
KME1 120639Z 22003KT 14/11 A3006 RMK A01 T01360110  RH  085%=      5-min Rain = 0
KME1 120640Z 22003KT 14/11 A3006 RMK A01 T01360110  RH  085%=      5-min Rain = 0
KME1 120641Z 21003KT 14/11 A3006 RMK A01 T01360109  RH  084%=      5-min Rain = 0
KME1 120642Z 21003KT 14/11 A3006 RMK A01 T01350108  RH  084%=      5-min Rain = 0
KME1 120643Z 21003KT 14/11 A3006 RMK A01 T01360109  RH  084%=      5-min Rain = 0
KME1 120644Z 20003KT 14/11 A3006 RMK A01 T01350109  RH  084%=      5-min Rain = 0
KME1 120645Z 20003KT 14/11 A3006 RMK A01 T01350109  RH  084%=      5-min Rain = 0
KME1 120646Z 20002KT 13/11 A3006 RMK A01 T01340108  RH  084%=      5-min Rain = 0
KME1 120647Z 20003KT 13/11 A3006 RMK A01 T01340108  RH  084%=      5-min Rain = 0
KME1 120648Z 20002KT 13/11 A3006 RMK A01 T01330108  RH  085%=      5-min Rain = 0
KME1 120649Z 20002KT 13/11 A3006 RMK A01 T01330107  RH  085%=      5-min Rain = 0
KME1 120650Z 20002KT 13/11 A3006 RMK A01 T01330107  RH  084%=      5-min Rain = 0
KME1 120651Z 20003KT 13/11 A3006 RMK A01 T01320106  RH  084%=      5-min Rain = 0
KME1 120652Z 21003KT 13/11 A3006 RMK A01 T01320107  RH  085%=      5-min Rain = 0
KME1 120653Z 21003KT 13/11 A3006 RMK A01 T01320107  RH  085%=      5-min Rain = 0
KME1 120654Z 21003KT 13/11 A3006 RMK A01 T01320108  RH  086%=      5-min Rain = 0
KME1 120655Z 21003KT 13/11 A3006 RMK A01 T01320108  RH  086%=      5-min Rain = 0
KME1 120656Z 20003KT 13/11 A3006 RMK A01 T01330109  RH  085%=      5-min Rain = 0
KME1 120657Z 21003KT 13/11 A3006 RMK A01 T01330108  RH  085%=      5-min Rain = 0
KME1 120658Z 20003KT 13/11 A3006 RMK A01 T01340108  RH  084%=      5-min Rain = 0
KME1 120659Z 21003KT 14/11 A3006 RMK A01 T01350107  RH  083%=      5-min Rain = 0
KME1 120700Z 20003KT 14/11 A3006 RMK A01 T01360107  RH  083%=      5-min Rain = 0
KME1 120701Z 20003KT 14/11 A3006 RMK A01 T01370107  RH  082%=      5-min Rain = 0
KME1 120702Z 20003KT 14/11 A3006 RMK A01 T01370107  RH  082%=      5-min Rain = 0
KME1 120703Z 20003KT 14/11 A3006 RMK A01 T01380107  RH  082%=      5-min Rain = 0
KME1 120704Z 20003KT 14/11 A3006 RMK A01 T01380107  RH  081%=      5-min Rain = 0
KME1 120705Z 20004KT 14/11 A3006 RMK A01 T01380106  RH  081%=      5-min Rain = 0
KME1 120706Z 20004KT 14/11 A3006 RMK A01 T01380106  RH  081%=      5-min Rain = 0
KME1 120707Z 20004KT 14/11 A3006 RMK A01 T01380106  RH  081%=      5-min Rain = 0
KME1 120708Z 21004KT 14/11 A3006 RMK A01 T01380105  RH  081%=      5-min Rain = 0
KME1 120709Z 21004KT 14/11 A3006 RMK A01 T01380106  RH  081%=      5-min Rain = 0
KME1 120710Z 21004KT 14/11 A3006 RMK A01 T01380106  RH  081%=      5-min Rain = 0
KME1 120711Z 21003KT 14/11 A3006 RMK A01 T01380106  RH  081%=      5-min Rain = 0
KME1 120712Z 21004KT 14/11 A3006 RMK A01 T01380106  RH  081%=      5-min Rain = 0
KME1 120713Z 21004KT 14/11 A3006 RMK A01 T01370106  RH  082%=      5-min Rain = 0
KME1 120714Z 21003KT 14/11 A3006 RMK A01 T01370106  RH  082%=      5-min Rain = 0
KME1 120715Z 21003KT 14/11 A3006 RMK A01 T01370106  RH  082%=      5-min Rain = 0
KME1 120716Z 21003KT 14/11 A3006 RMK A01 T01360106  RH  082%=      5-min Rain = 0
KME1 120717Z 21004KT 14/11 A3006 RMK A01 T01360106  RH  082%=      5-min Rain = 0
KME1 120718Z 22004KT 14/11 A3006 RMK A01 T01360106  RH  082%=      5-min Rain = 0
KME1 120719Z 21004KT 14/11 A3006 RMK A01 T01360106  RH  082%=      5-min Rain = 0
KME1 120720Z 21004KT 14/11 A3006 RMK A01 T01360105  RH  082%=      5-min Rain = 0
KME1 120721Z 22004KT 14/11 A3006 RMK A01 T01360105  RH  082%=      5-min Rain = 0
KME1 120722Z 21003KT 14/10 A3006 RMK A01 T01360104  RH  081%=      5-min Rain = 0
KME1 120723Z 21003KT 14/10 A3006 RMK A01 T01360104  RH  081%=      5-min Rain = 0
KME1 120724Z 22003KT 14/10 A3006 RMK A01 T01360104  RH  081%=      5-min Rain = 0
KME1 120725Z 21003KT 14/10 A3006 RMK A01 T01370104  RH  081%=      5-min Rain = 0
KME1 120726Z 21003KT 14/10 A3006 RMK A01 T01360104  RH  081%=      5-min Rain = 0
KME1 120727Z 22004KT 14/10 A3006 RMK A01 T01360104  RH  081%=      5-min Rain = 0
KME1 120728Z 22003KT 14/10 A3006 RMK A01 T01360104  RH  081%=      5-min Rain = 0
KME1 120729Z 21003KT 14/10 A3006 RMK A01 T01360103  RH  081%=      5-min Rain = 0
KME1 120730Z 21003KT 14/10 A3006 RMK A01 T01360103  RH  080%=      5-min Rain = 0
KME1 120731Z 21003KT 14/10 A3006 RMK A01 T01360103  RH  080%=      5-min Rain = 0
KME1 120732Z 21003KT 14/10 A3006 RMK A01 T01360103  RH  081%=      5-min Rain = 0
KME1 120733Z 21003KT 14/10 A3006 RMK A01 T01350103  RH  081%=      5-min Rain = 0
KME1 120734Z 21003KT 14/10 A3006 RMK A01 T01350103  RH  081%=      5-min Rain = 0
KME1 120735Z 21003KT 13/10 A3006 RMK A01 T01340102  RH  081%=      5-min Rain = 0
KME1 120736Z 21003KT 14/10 A3006 RMK A01 T01350102  RH  081%=      5-min Rain = 0
KME1 120737Z 21003KT 13/10 A3006 RMK A01 T01340102  RH  081%=      5-min Rain = 0
KME1 120738Z 21003KT 13/10 A3006 RMK A01 T01340101  RH  081%=      5-min Rain = 0
KME1 120739Z 21003KT 13/10 A3006 RMK A01 T01340101  RH  081%=      5-min Rain = 0
KME1 120740Z 21003KT 13/10 A3006 RMK A01 T01340101  RH  080%=      5-min Rain = 0
KME1 120741Z 21002KT 13/10 A3006 RMK A01 T01340101  RH  080%=      5-min Rain = 0
KME1 120742Z 20003KT 13/10 A3006 RMK A01 T01340101  RH  080%=      5-min Rain = 0
KME1 120743Z 20003KT 13/10 A3006 RMK A01 T01340101  RH  080%=      5-min Rain = 0
KME1 120744Z 19003KT 13/10 A3006 RMK A01 T01340100  RH  080%=      5-min Rain = 0
KME1 120745Z 19003KT 13/10 A3006 RMK A01 T01340100  RH  080%=      5-min Rain = 0
KME1 120746Z 19003KT 13/10 A3006 RMK A01 T01340100  RH  080%=      5-min Rain = 0
KME1 120747Z 20002KT 13/10 A3006 RMK A01 T01340099  RH  080%=      5-min Rain = 0
KME1 120748Z 20002KT 13/10 A3006 RMK A01 T01340099  RH  080%=      5-min Rain = 0
KME1 120749Z 20002KT 13/10 A3006 RMK A01 T01340100  RH  080%=      5-min Rain = 0
KME1 120750Z 21002KT 13/10 A3006 RMK A01 T01340100  RH  080%=      5-min Rain = 0
KME1 120751Z 21003KT 13/10 A3006 RMK A01 T01340099  RH  079%=      5-min Rain = 0
KME1 120752Z 21003KT 13/10 A3005 RMK A01 T01340099  RH  079%=      5-min Rain = 0
KME1 120753Z 21003KT 13/10 A3006 RMK A01 T01340099  RH  079%=      5-min Rain = 0
KME1 120754Z 21003KT 13/10 A3006 RMK A01 T01340099  RH  079%=      5-min Rain = 0
KME1 120755Z 20003KT 13/10 A3006 RMK A01 T01340099  RH  079%=      5-min Rain = 0
KME1 120756Z 20002KT 13/10 A3005 RMK A01 T01340100  RH  080%=      5-min Rain = 0
KME1 120757Z 21002KT 13/10 A3005 RMK A01 T01340100  RH  080%=      5-min Rain = 0
KME1 120758Z 21003KT 13/10 A3005 RMK A01 T01340099  RH  080%=      5-min Rain = 0
KME1 120759Z 21002KT 13/10 A3005 RMK A01 T01340099  RH  080%=      5-min Rain = 0
KME1 120800Z 21002KT 13/10 A3005 RMK A01 T01330099  RH  080%=      5-min Rain = 0
KME1 120801Z 21002KT 13/10 A3005 RMK A01 T01330099  RH  080%=      5-min Rain = 0
KME1 120802Z 22002KT 13/10 A3005 RMK A01 T01330099  RH  080%=      5-min Rain = 0
KME1 120803Z 22002KT 13/10 A3005 RMK A01 T01330099  RH  080%=      5-min Rain = 0
KME1 120804Z 22003KT 13/10 A3005 RMK A01 T01330100  RH  081%=      5-min Rain = 0
KME1 120805Z 21003KT 13/10 A3005 RMK A01 T01330101  RH  081%=      5-min Rain = 0
KME1 120806Z 21003KT 13/10 A3005 RMK A01 T01330101  RH  081%=      5-min Rain = 0
KME1 120807Z 21003KT 13/10 A3005 RMK A01 T01330100  RH  081%=      5-min Rain = 0
KME1 120808Z 21003KT 13/10 A3005 RMK A01 T01320100  RH  081%=      5-min Rain = 0
KME1 120809Z 21003KT 13/10 A3005 RMK A01 T01320099  RH  080%=      5-min Rain = 0
KME1 120810Z 21003KT 13/10 A3005 RMK A01 T01320099  RH  080%=      5-min Rain = 0
KME1 120811Z 22003KT 13/10 A3005 RMK A01 T01320099  RH  080%=      5-min Rain = 0
KME1 120812Z 22003KT 13/10 A3005 RMK A01 T01320098  RH  080%=      5-min Rain = 0
KME1 120813Z 22003KT 13/10 A3005 RMK A01 T01320099  RH  080%=      5-min Rain = 0
KME1 120814Z 22004KT 13/10 A3005 RMK A01 T01320099  RH  080%=      5-min Rain = 0
KME1 120815Z 22003KT 13/10 A3005 RMK A01 T01320099  RH  080%=      5-min Rain = 0
KME1 120816Z 22003KT 13/10 A3005 RMK A01 T01320099  RH  081%=      5-min Rain = 0
KME1 120817Z 21003KT 13/10 A3005 RMK A01 T01320099  RH  081%=      5-min Rain = 0
KME1 120818Z 21003KT 13/10 A3005 RMK A01 T01320099  RH  081%=      5-min Rain = 0
KME1 120819Z 21003KT 13/10 A3005 RMK A01 T01320100  RH  081%=      5-min Rain = 0
KME1 120820Z 21004KT 13/10 A3005 RMK A01 T01320100  RH  081%=      5-min Rain = 0
KME1 120821Z 21003KT 13/10 A3005 RMK A01 T01310099  RH  081%=      5-min Rain = 0
KME1 120822Z 21003KT 13/10 A3005 RMK A01 T01310099  RH  081%=      5-min Rain = 0
KME1 120823Z 20003KT 13/10 A3005 RMK A01 T01310099  RH  081%=      5-min Rain = 0
KME1 120824Z 21003KT 13/10 A3005 RMK A01 T01310099  RH  081%=      5-min Rain = 0
KME1 120825Z 21003KT 13/10 A3005 RMK A01 T01310098  RH  081%=      5-min Rain = 0
KME1 120826Z 21003KT 13/10 A3005 RMK A01 T01310098  RH  081%=      5-min Rain = 0
KME1 120827Z 21003KT 13/10 A3005 RMK A01 T01310098  RH  081%=      5-min Rain = 0
KME1 120828Z 21003KT 13/10 A3005 RMK A01 T01310098  RH  080%=      5-min Rain = 0
KME1 120829Z 21003KT 13/10 A3005 RMK A01 T01310098  RH  080%=      5-min Rain = 0
KME1 120830Z 21003KT 13/10 A3005 RMK A01 T01310098  RH  081%=      5-min Rain = 0
KME1 120831Z 21003KT 13/10 A3005 RMK A01 T01300098  RH  081%=      5-min Rain = 0
KME1 120832Z 21003KT 13/10 A3005 RMK A01 T01300098  RH  081%=      5-min Rain = 0
KME1 120833Z 21004KT 13/10 A3005 RMK A01 T01300098  RH  081%=      5-min Rain = 0
KME1 120834Z 21003KT 13/10 A3005 RMK A01 T01300097  RH  081%=      5-min Rain = 0
KME1 120835Z 21003KT 13/10 A3005 RMK A01 T01300097  RH  081%=      5-min Rain = 0
KME1 120836Z 21003KT 13/10 A3005 RMK A01 T01300097  RH  081%=      5-min Rain = 0
KME1 120837Z 20003KT 13/10 A3005 RMK A01 T01300097  RH  081%=      5-min Rain = 0
KME1 120838Z 21003KT 13/10 A3005 RMK A01 T01290097  RH  081%=      5-min Rain = 0
KME1 120839Z 21003KT 13/10 A3005 RMK A01 T01290097  RH  081%=      5-min Rain = 0
KME1 120840Z 21003KT 13/10 A3005 RMK A01 T01290097  RH  081%=      5-min Rain = 0
KME1 120841Z 21003KT 13/10 A3005 RMK A01 T01290097  RH  081%=      5-min Rain = 0
KME1 120842Z 21003KT 13/10 A3005 RMK A01 T01290097  RH  081%=      5-min Rain = 0
KME1 120843Z 21003KT 13/10 A3005 RMK A01 T01290096  RH  081%=      5-min Rain = 0
KME1 120844Z 21003KT 13/10 A3005 RMK A01 T01290096  RH  081%=      5-min Rain = 0
KME1 120845Z 21003KT 13/10 A3005 RMK A01 T01280096  RH  081%=      5-min Rain = 0
KME1 120846Z 21004KT 13/10 A3005 RMK A01 T01280096  RH  081%=      5-min Rain = 0
KME1 120847Z 21004KT 13/10 A3005 RMK A01 T01290097  RH  081%=      5-min Rain = 0
KME1 120848Z 21004KT 13/10 A3005 RMK A01 T01280097  RH  081%=      5-min Rain = 0
KME1 120849Z 21004KT 13/10 A3005 RMK A01 T01280096  RH  081%=      5-min Rain = 0
KME1 120850Z 21004KT 13/10 A3005 RMK A01 T01280097  RH  081%=      5-min Rain = 0
KME1 120851Z 21004KT 13/10 A3005 RMK A01 T01280096  RH  081%=      5-min Rain = 0
KME1 120852Z 21004KT 13/10 A3005 RMK A01 T01270096  RH  081%=      5-min Rain = 0
KME1 120853Z 21004KT 13/10 A3005 RMK A01 T01270096  RH  081%=      5-min Rain = 0
KME1 120854Z 21004KT 13/10 A3005 RMK A01 T01270096  RH  082%=      5-min Rain = 0
KME1 120855Z 21004KT 13/10 A3005 RMK A01 T01270096  RH  082%=      5-min Rain = 0
KME1 120856Z 21004KT 13/10 A3005 RMK A01 T01260096  RH  082%=      5-min Rain = 0
KME1 120857Z 22004KT 13/10 A3005 RMK A01 T01260096  RH  082%=      5-min Rain = 0
KME1 120858Z 22004KT 13/10 A3005 RMK A01 T01260097  RH  082%=      5-min Rain = 0
KME1 120859Z 21004KT 13/10 A3005 RMK A01 T01260097  RH  082%=      5-min Rain = 0
KME1 120900Z 22004KT 13/10 A3005 RMK A01 T01250096  RH  082%=      5-min Rain = 0
KME1 120901Z 22004KT 13/10 A3005 RMK A01 T01250097  RH  083%=      5-min Rain = 0
KME1 120902Z 22004KT 13/10 A3005 RMK A01 T01250097  RH  083%=      5-min Rain = 0
KME1 120903Z 22004KT 13/10 A3005 RMK A01 T01250096  RH  083%=      5-min Rain = 0
KME1 120904Z 22004KT 13/10 A3005 RMK A01 T01250096  RH  083%=      5-min Rain = 0
KME1 120905Z 22004KT 13/10 A3005 RMK A01 T01250097  RH  083%=      5-min Rain = 0
KME1 120906Z 22004KT 13/10 A3005 RMK A01 T01250096  RH  083%=      5-min Rain = 0
KME1 120907Z 21004KT 12/10 A3005 RMK A01 T01240096  RH  083%=      5-min Rain = 0
KME1 120908Z 21003KT 12/10 A3005 RMK A01 T01240096  RH  083%=      5-min Rain = 0
KME1 120909Z 21003KT 12/10 A3005 RMK A01 T01240096  RH  083%=      5-min Rain = 0
KME1 120910Z 21003KT 12/10 A3005 RMK A01 T01240096  RH  083%=      5-min Rain = 0
KME1 120911Z 21003KT 12/10 A3005 RMK A01 T01240096  RH  083%=      5-min Rain = 0
KME1 120912Z 21003KT 12/10 A3005 RMK A01 T01230095  RH  083%=      5-min Rain = 0
KME1 120913Z 21002KT 12/10 A3005 RMK A01 T01230095  RH  083%=      5-min Rain = 0
KME1 120914Z 21002KT 12/10 A3005 RMK A01 T01230095  RH  083%=      5-min Rain = 0
KME1 120915Z 21001KT 12/10 A3005 RMK A01 T01230095  RH  083%=      5-min Rain = 0
KME1 120916Z 19001KT 12/10 A3005 RMK A01 T01220095  RH  083%=      5-min Rain = 0
KME1 120917Z 15001KT 12/09 A3005 RMK A01 T01220094  RH  083%=      5-min Rain = 0
KME1 120918Z 11001KT 12/09 A3005 RMK A01 T01220094  RH  083%=      5-min Rain = 0
KME1 120919Z 12001KT 12/09 A3005 RMK A01 T01200093  RH  083%=      5-min Rain = 0
KME1 120920Z 15001KT 12/09 A3005 RMK A01 T01190093  RH  084%=      5-min Rain = 0
KME1 120921Z 18001KT 12/09 A3004 RMK A01 T01180093  RH  085%=      5-min Rain = 0
KME1 120922Z 18002KT 12/09 A3004 RMK A01 T01180094  RH  085%=      5-min Rain = 0
KME1 120923Z 16002KT 12/09 A3004 RMK A01 T01180094  RH  085%=      5-min Rain = 0
KME1 120924Z 18002KT 12/09 A3004 RMK A01 T01180094  RH  085%=      5-min Rain = 0
KME1 120925Z 21003KT 12/09 A3004 RMK A01 T01180094  RH  085%=      5-min Rain = 0
KME1 120926Z 21004KT 12/09 A3004 RMK A01 T01180094  RH  086%=      5-min Rain = 0
KME1 120927Z 22003KT 12/10 A3004 RMK A01 T01180095  RH  086%=      5-min Rain = 0
KME1 120928Z 21003KT 12/10 A3004 RMK A01 T01180095  RH  086%=      5-min Rain = 0
KME1 120929Z 20003KT 12/10 A3004 RMK A01 T01190095  RH  085%=      5-min Rain = 0
KME1 120930Z 21003KT 12/09 A3004 RMK A01 T01190094  RH  085%=      5-min Rain = 0
KME1 120931Z 21003KT 12/09 A3004 RMK A01 T01190094  RH  084%=      5-min Rain = 0
KME1 120932Z 21004KT 12/09 A3004 RMK A01 T01200093  RH  084%=      5-min Rain = 0
KME1 120933Z 20003KT 12/09 A3004 RMK A01 T01200093  RH  084%=      5-min Rain = 0
KME1 120934Z 20003KT 12/09 A3004 RMK A01 T01200093  RH  083%=      5-min Rain = 0
KME1 120935Z 20003KT 12/09 A3004 RMK A01 T01200093  RH  083%=      5-min Rain = 0
KME1 120936Z 21004KT 12/09 A3004 RMK A01 T01200093  RH  083%=      5-min Rain = 0
KME1 120937Z 21004KT 12/09 A3004 RMK A01 T01200093  RH  083%=      5-min Rain = 0
KME1 120938Z 21004KT 12/09 A3004 RMK A01 T01200092  RH  083%=      5-min Rain = 0
KME1 120939Z 21004KT 12/09 A3004 RMK A01 T01200092  RH  083%=      5-min Rain = 0
KME1 120940Z 21004KT 12/09 A3004 RMK A01 T01200092  RH  083%=      5-min Rain = 0
KME1 120941Z 21004KT 12/09 A3004 RMK A01 T01200093  RH  083%=      5-min Rain = 0
KME1 120942Z 21004KT 12/09 A3004 RMK A01 T01200092  RH  083%=      5-min Rain = 0
KME1 120943Z 21004KT 12/09 A3004 RMK A01 T01200092  RH  083%=      5-min Rain = 0
KME1 120944Z 21004KT 12/09 A3004 RMK A01 T01200092  RH  083%=      5-min Rain = 0
KME1 120945Z 21005KT 12/09 A3004 RMK A01 T01190092  RH  083%=      5-min Rain = 0
KME1 120946Z 22005KT 12/09 A3004 RMK A01 T01190092  RH  083%=      5-min Rain = 0
KME1 120947Z 22005KT 12/09 A3004 RMK A01 T01190092  RH  084%=      5-min Rain = 0
KME1 120948Z 22005KT 12/09 A3004 RMK A01 T01190092  RH  084%=      5-min Rain = 0
KME1 120949Z 22005KT 12/09 A3004 RMK A01 T01190092  RH  084%=      5-min Rain = 0
KME1 120950Z 22005KT 12/09 A3004 RMK A01 T01190092  RH  084%=      5-min Rain = 0
KME1 120951Z 22005KT 12/09 A3004 RMK A01 T01180092  RH  084%=      5-min Rain = 0
KME1 120952Z 22005KT 12/09 A3004 RMK A01 T01180091  RH  083%=      5-min Rain = 0
KME1 120953Z 22005KT 12/09 A3004 RMK A01 T01180091  RH  083%=      5-min Rain = 0
KME1 120954Z 22005KT 12/09 A3004 RMK A01 T01180091  RH  083%=      5-min Rain = 0
KME1 120955Z 22005KT 12/09 A3004 RMK A01 T01180091  RH  083%=      5-min Rain = 0
KME1 120956Z 22005KT 12/09 A3004 RMK A01 T01190091  RH  083%=      5-min Rain = 0
KME1 120957Z 22005KT 12/09 A3004 RMK A01 T01190091  RH  083%=      5-min Rain = 0
KME1 120958Z 22005KT 12/09 A3004 RMK A01 T01190091  RH  083%=      5-min Rain = 0
KME1 120959Z 22005KT 12/09 A3004 RMK A01 T01190091  RH  083%=      5-min Rain = 0
KME1 121000Z 22004KT 12/09 A3004 RMK A01 T01190090  RH  083%=      5-min Rain = 0
KME1 121001Z 22004KT 12/09 A3004 RMK A01 T01190090  RH  082%=      5-min Rain = 0
KME1 121002Z 22004KT 12/09 A3004 RMK A01 T01190090  RH  082%=      5-min Rain = 0
KME1 121003Z 22005KT 12/09 A3004 RMK A01 T01190090  RH  082%=      5-min Rain = 0
KME1 121004Z 22004KT 12/09 A3004 RMK A01 T01190090  RH  082%=      5-min Rain = 0
KME1 121005Z 22004KT 12/09 A3004 RMK A01 T01190090  RH  082%=      5-min Rain = 0
KME1 121006Z 22004KT 12/09 A3004 RMK A01 T01190089  RH  082%=      5-min Rain = 0
KME1 121007Z 22004KT 12/09 A3004 RMK A01 T01190089  RH  082%=      5-min Rain = 0
KME1 121008Z 21004KT 12/09 A3004 RMK A01 T01190089  RH  082%=      5-min Rain = 0
KME1 121009Z 22004KT 12/09 A3004 RMK A01 T01190089  RH  082%=      5-min Rain = 0
KME1 121010Z 22003KT 12/09 A3004 RMK A01 T01190089  RH  082%=      5-min Rain = 0
KME1 121011Z 22003KT 12/09 A3004 RMK A01 T01190089  RH  082%=      5-min Rain = 0
KME1 121012Z 23003KT 12/09 A3004 RMK A01 T01190090  RH  082%=      5-min Rain = 0
KME1 121013Z 23003KT 12/09 A3004 RMK A01 T01190090  RH  082%=      5-min Rain = 0
KME1 121014Z 23002KT 12/09 A3004 RMK A01 T01190091  RH  083%=      5-min Rain = 0
KME1 121015Z 22002KT 12/09 A3004 RMK A01 T01190091  RH  083%=      5-min Rain = 0
KME1 121016Z 22002KT 12/09 A3004 RMK A01 T01190091  RH  083%=      5-min Rain = 0
KME1 121017Z 22002KT 12/09 A3004 RMK A01 T01190091  RH  083%=      5-min Rain = 0
KME1 121018Z 22002KT 12/09 A3004 RMK A01 T01190092  RH  083%=      5-min Rain = 0
KME1 121019Z 22002KT 12/09 A3004 RMK A01 T01180092  RH  084%=      5-min Rain = 0
KME1 121020Z 22002KT 12/09 A3004 RMK A01 T01180093  RH  084%=      5-min Rain = 0
KME1 121021Z 22002KT 12/09 A3004 RMK A01 T01180093  RH  085%=      5-min Rain = 0
KME1 121022Z 23002KT 12/09 A3004 RMK A01 T01180094  RH  085%=      5-min Rain = 0
KME1 121023Z 23001KT 12/09 A3004 RMK A01 T01180094  RH  085%=      5-min Rain = 0
KME1 121024Z 24001KT 12/09 A3004 RMK A01 T01180094  RH  085%=      5-min Rain = 0
KME1 121025Z 24001KT 12/09 A3004 RMK A01 T01180094  RH  085%=      5-min Rain = 0
KME1 121026Z 24001KT 12/09 A3004 RMK A01 T01180094  RH  085%=      5-min Rain = 0
KME1 121027Z 24001KT 12/09 A3004 RMK A01 T01170093  RH  085%=      5-min Rain = 0
KME1 121028Z 22001KT 12/09 A3004 RMK A01 T01170092  RH  085%=      5-min Rain = 0
KME1 121029Z 22001KT 12/09 A3004 RMK A01 T01180092  RH  084%=      5-min Rain = 0
KME1 121030Z 22001KT 12/09 A3004 RMK A01 T01170091  RH  084%=      5-min Rain = 0
KME1 121031Z 21001KT 12/09 A3004 RMK A01 T01170092  RH  084%=      5-min Rain = 0
KME1 121032Z 21001KT 12/09 A3004 RMK A01 T01170092  RH  084%=      5-min Rain = 0
KME1 121033Z 21001KT 12/09 A3004 RMK A01 T01170092  RH  084%=      5-min Rain = 0
KME1 121034Z 21002KT 12/09 A3004 RMK A01 T01170092  RH  085%=      5-min Rain = 0
KME1 121035Z 20002KT 12/09 A3004 RMK A01 T01170092  RH  085%=      5-min Rain = 0
KME1 121036Z 20002KT 12/09 A3004 RMK A01 T01160092  RH  085%=      5-min Rain = 0
KME1 121037Z 20003KT 12/09 A3004 RMK A01 T01160092  RH  086%=      5-min Rain = 0
KME1 121038Z 19003KT 12/09 A3004 RMK A01 T01150093  RH  086%=      5-min Rain = 0
KME1 121039Z 19003KT 11/09 A3004 RMK A01 T01140093  RH  087%=      5-min Rain = 0
KME1 121040Z 18003KT 11/09 A3004 RMK A01 T01140093  RH  087%=      5-min Rain = 0
KME1 121041Z 19003KT 11/09 A3004 RMK A01 T01130093  RH  087%=      5-min Rain = 0
KME1 121042Z 19002KT 11/09 A3004 RMK A01 T01130093  RH  087%=      5-min Rain = 0
KME1 121043Z 19002KT 11/09 A3004 RMK A01 T01130093  RH  087%=      5-min Rain = 0
KME1 121044Z 19002KT 11/09 A3004 RMK A01 T01120092  RH  088%=      5-min Rain = 0
KME1 121045Z 18002KT 11/09 A3004 RMK A01 T01120093  RH  088%=      5-min Rain = 0
KME1 121046Z 18003KT 11/09 A3004 RMK A01 T01130093  RH  088%=      5-min Rain = 0
KME1 121047Z 19002KT 11/09 A3004 RMK A01 T01130092  RH  087%=      5-min Rain = 0
KME1 121048Z 19002KT 11/09 A3004 RMK A01 T01130092  RH  087%=      5-min Rain = 0
KME1 121049Z 19002KT 11/09 A3004 RMK A01 T01120092  RH  087%=      5-min Rain = 0
KME1 121050Z 19002KT 11/09 A3004 RMK A01 T01130092  RH  087%=      5-min Rain = 0
KME1 121051Z 19002KT 11/09 A3004 RMK A01 T01120092  RH  087%=      5-min Rain = 0
KME1 121052Z 19002KT 11/09 A3004 RMK A01 T01120092  RH  087%=      5-min Rain = 0
KME1 121053Z 19002KT 11/09 A3004 RMK A01 T01120091  RH  087%=      5-min Rain = 0
KME1 121054Z 19002KT 11/09 A3004 RMK A01 T01110091  RH  087%=      5-min Rain = 0
KME1 121055Z 19002KT 11/09 A3004 RMK A01 T01120091  RH  087%=      5-min Rain = 0
KME1 121056Z 19002KT 11/09 A3005 RMK A01 T01110091  RH  087%=      5-min Rain = 0
KME1 121057Z 19002KT 11/09 A3005 RMK A01 T01110091  RH  087%=      5-min Rain = 0
KME1 121058Z 19002KT 11/09 A3005 RMK A01 T01110091  RH  088%=      5-min Rain = 0
KME1 121059Z 19002KT 11/09 A3005 RMK A01 T01110091  RH  087%=      5-min Rain = 0
KME1 121100Z 19003KT 11/09 A3005 RMK A01 T01110090  RH  087%=      5-min Rain = 0
KME1 121101Z 20003KT 11/09 A3005 RMK A01 T01110090  RH  087%=      5-min Rain = 0
KME1 121102Z 20003KT 11/09 A3005 RMK A01 T01110090  RH  087%=      5-min Rain = 0
KME1 121103Z 20003KT 11/09 A3005 RMK A01 T01110090  RH  087%=      5-min Rain = 0
KME1 121104Z 20003KT 11/09 A3005 RMK A01 T01110090  RH  087%=      5-min Rain = 0
KME1 121105Z 20003KT 11/09 A3005 RMK A01 T01110090  RH  087%=      5-min Rain = 0
KME1 121106Z 20004KT 11/09 A3005 RMK A01 T01110090  RH  087%=      5-min Rain = 0
KME1 121107Z 20004KT 11/09 A3005 RMK A01 T01110090  RH  087%=      5-min Rain = 0
KME1 121108Z 20003KT 11/09 A3005 RMK A01 T01110090  RH  087%=      5-min Rain = 0
KME1 121109Z 20003KT 11/09 A3005 RMK A01 T01110090  RH  087%=      5-min Rain = 0
KME1 121110Z 20003KT 11/09 A3005 RMK A01 T01110089  RH  087%=      5-min Rain = 0
KME1 121111Z 20003KT 11/09 A3005 RMK A01 T01120090  RH  086%=      5-min Rain = 0
KME1 121112Z 21003KT 11/09 A3005 RMK A01 T01110090  RH  086%=      5-min Rain = 0
KME1 121113Z 21003KT 11/09 A3005 RMK A01 T01120090  RH  086%=      5-min Rain = 0
KME1 121114Z 21004KT 11/09 A3005 RMK A01 T01110090  RH  086%=      5-min Rain = 0
KME1 121115Z 21004KT 11/09 A3005 RMK A01 T01110090  RH  087%=      5-min Rain = 0
KME1 121116Z 21004KT 11/09 A3005 RMK A01 T01110090  RH  087%=      5-min Rain = 0
KME1 121117Z 21004KT 11/09 A3005 RMK A01 T01110090  RH  087%=      5-min Rain = 0
KME1 121118Z 22004KT 11/09 A3005 RMK A01 T01110090  RH  087%=      5-min Rain = 0
KME1 121119Z 22004KT 11/09 A3005 RMK A01 T01110090  RH  087%=      5-min Rain = 0
KME1 121120Z 22004KT 11/09 A3005 RMK A01 T01110090  RH  087%=      5-min Rain = 0
KME1 121121Z 22004KT 11/09 A3005 RMK A01 T01110090  RH  087%=      5-min Rain = 0
KME1 121122Z 22004KT 11/09 A3005 RMK A01 T01110090  RH  087%=      5-min Rain = 0
KME1 121123Z 22004KT 11/09 A3005 RMK A01 T01120090  RH  087%=      5-min Rain = 0
KME1 121124Z 22004KT 11/09 A3005 RMK A01 T01120090  RH  087%=      5-min Rain = 0
KME1 121125Z 22004KT 11/09 A3005 RMK A01 T01120090  RH  086%=      5-min Rain = 0
KME1 121126Z 22004KT 11/09 A3005 RMK A01 T01110089  RH  086%=      5-min Rain = 0
KME1 121127Z 22004KT 11/09 A3005 RMK A01 T01120089  RH  086%=      5-min Rain = 0
KME1 121128Z 21004KT 11/09 A3005 RMK A01 T01120089  RH  086%=      5-min Rain = 0
KME1 121129Z 21004KT 11/09 A3005 RMK A01 T01110089  RH  086%=      5-min Rain = 0
KME1 121130Z 21004KT 11/09 A3005 RMK A01 T01110089  RH  086%=      5-min Rain = 0
KME1 121131Z 21004KT 11/09 A3005 RMK A01 T01110088  RH  086%=      5-min Rain = 0
KME1 121132Z 21004KT 11/09 A3005 RMK A01 T01110088  RH  086%=      5-min Rain = 0
KME1 121133Z 21004KT 11/09 A3005 RMK A01 T01100088  RH  086%=      5-min Rain = 0
KME1 121134Z 21004KT 11/09 A3005 RMK A01 T01100088  RH  086%=      5-min Rain = 0
KME1 121135Z 21004KT 11/09 A3005 RMK A01 T01100087  RH  086%=      5-min Rain = 0
KME1 121136Z 22004KT 11/09 A3005 RMK A01 T01100088  RH  086%=      5-min Rain = 0
KME1 121137Z 21004KT 11/09 A3005 RMK A01 T01100088  RH  086%=      5-min Rain = 0
KME1 121138Z 21004KT 11/09 A3005 RMK A01 T01090087  RH  086%=      5-min Rain = 0
KME1 121139Z 21004KT 11/09 A3005 RMK A01 T01090087  RH  086%=      5-min Rain = 0
KME1 121140Z 21004KT 11/09 A3005 RMK A01 T01090087  RH  086%=      5-min Rain = 0
KME1 121141Z 21004KT 11/09 A3005 RMK A01 T01090086  RH  086%=      5-min Rain = 0
KME1 121142Z 21004KT 11/09 A3005 RMK A01 T01090086  RH  086%=      5-min Rain = 0
KME1 121143Z 21004KT 11/09 A3005 RMK A01 T01090086  RH  086%=      5-min Rain = 0
KME1 121144Z 21004KT 11/09 A3005 RMK A01 T01080086  RH  086%=      5-min Rain = 0
KME1 121145Z 21004KT 11/09 A3005 RMK A01 T01080086  RH  086%=      5-min Rain = 0
KME1 121146Z 21004KT 11/09 A3005 RMK A01 T01080086  RH  086%=      5-min Rain = 0
KME1 121147Z 21004KT 11/09 A3005 RMK A01 T01080086  RH  086%=      5-min Rain = 0
KME1 121148Z 21004KT 11/09 A3005 RMK A01 T01080086  RH  086%=      5-min Rain = 0
KME1 121149Z 21004KT 11/09 A3005 RMK A01 T01080086  RH  086%=      5-min Rain = 0
KME1 121150Z 20004KT 11/09 A3005 RMK A01 T01080086  RH  086%=      5-min Rain = 0
KME1 121151Z 20003KT 11/09 A3005 RMK A01 T01080085  RH  086%=      5-min Rain = 0
KME1 121152Z 20004KT 11/09 A3005 RMK A01 T01090086  RH  086%=      5-min Rain = 0
KME1 121153Z 20003KT 11/09 A3005 RMK A01 T01090085  RH  085%=      5-min Rain = 0
KME1 121154Z 20003KT 11/09 A3005 RMK A01 T01090086  RH  085%=      5-min Rain = 0
KME1 121155Z 20003KT 11/09 A3005 RMK A01 T01090086  RH  085%=      5-min Rain = 0
KME1 121156Z 20003KT 11/09 A3005 RMK A01 T01090085  RH  085%=      5-min Rain = 0
KME1 121157Z 20003KT 11/09 A3005 RMK A01 T01090085  RH  085%=      5-min Rain = 0
KME1 121158Z 20003KT 11/09 A3005 RMK A01 T01090085  RH  085%=      5-min Rain = 0
KME1 121159Z 20003KT 11/09 A3005 RMK A01 T01090085  RH  085%=      5-min Rain = 0
KME1 121200Z 20003KT 11/09 A3005 RMK A01 T01090085  RH  085%=      5-min Rain = 0
KME1 121201Z 20003KT 11/09 A3005 RMK A01 T01090085  RH  085%=      5-min Rain = 0
KME1 121202Z 21003KT 11/09 A3005 RMK A01 T01090086  RH  085%=      5-min Rain = 0
KME1 121203Z 21002KT 11/09 A3005 RMK A01 T01090086  RH  086%=      5-min Rain = 0
KME1 121204Z 21002KT 11/09 A3005 RMK A01 T01090086  RH  086%=      5-min Rain = 0
KME1 121205Z 21002KT 11/09 A3005 RMK A01 T01090086  RH  086%=      5-min Rain = 0
KME1 121206Z 21002KT 11/09 A3006 RMK A01 T01090086  RH  086%=      5-min Rain = 0
KME1 121207Z 21002KT 11/09 A3006 RMK A01 T01080086  RH  086%=      5-min Rain = 0
KME1 121208Z 21002KT 11/09 A3006 RMK A01 T01080086  RH  086%=      5-min Rain = 0
KME1 121209Z 21002KT 11/09 A3006 RMK A01 T01080087  RH  086%=      5-min Rain = 0
KME1 121210Z 21002KT 11/09 A3006 RMK A01 T01080087  RH  087%=      5-min Rain = 0
KME1 121211Z 21002KT 11/09 A3006 RMK A01 T01080087  RH  087%=      5-min Rain = 0
KME1 121212Z 21002KT 11/09 A3006 RMK A01 T01080087  RH  087%=      5-min Rain = 0
KME1 121213Z 21002KT 11/09 A3006 RMK A01 T01080087  RH  087%=      5-min Rain = 0
KME1 121214Z 20002KT 11/09 A3006 RMK A01 T01080087  RH  087%=      5-min Rain = 0
KME1 121215Z 20002KT 11/09 A3006 RMK A01 T01090087  RH  087%=      5-min Rain = 0
KME1 121216Z 21002KT 11/09 A3006 RMK A01 T01080087  RH  087%=      5-min Rain = 0
KME1 121217Z 21002KT 11/09 A3006 RMK A01 T01080087  RH  087%=      5-min Rain = 0
KME1 121218Z 21002KT 11/09 A3006 RMK A01 T01080087  RH  087%=      5-min Rain = 0
KME1 121219Z 21002KT 11/09 A3006 RMK A01 T01080087  RH  087%=      5-min Rain = 0
KME1 121220Z 21002KT 11/09 A3006 RMK A01 T01080088  RH  087%=      5-min Rain = 0
KME1 121221Z 21002KT 11/09 A3006 RMK A01 T01080088  RH  087%=      5-min Rain = 0
KME1 121222Z 21003KT 11/09 A3006 RMK A01 T01080088  RH  087%=      5-min Rain = 0
KME1 121223Z 21003KT 11/09 A3006 RMK A01 T01080088  RH  087%=      5-min Rain = 0
KME1 121224Z 21003KT 11/09 A3006 RMK A01 T01080087  RH  087%=      5-min Rain = 0
KME1 121225Z 21003KT 11/09 A3006 RMK A01 T01080087  RH  087%=      5-min Rain = 0
KME1 121226Z 22003KT 11/09 A3006 RMK A01 T01080087  RH  087%=      5-min Rain = 0
KME1 121227Z 22003KT 11/09 A3006 RMK A01 T01080086  RH  087%=      5-min Rain = 0
KME1 121228Z 22003KT 11/09 A3006 RMK A01 T01080086  RH  087%=      5-min Rain = 0
KME1 121229Z 22003KT 11/09 A3006 RMK A01 T01080087  RH  087%=      5-min Rain = 0
KME1 121230Z 22003KT 11/09 A3006 RMK A01 T01080087  RH  087%=      5-min Rain = 0
KME1 121231Z 21003KT 11/09 A3006 RMK A01 T01080086  RH  087%=      5-min Rain = 0
KME1 121232Z 21003KT 11/09 A3006 RMK A01 T01080086  RH  086%=      5-min Rain = 0
KME1 121233Z 21003KT 11/09 A3006 RMK A01 T01080085  RH  086%=      5-min Rain = 0
KME1 121234Z 21003KT 11/09 A3006 RMK A01 T01080086  RH  086%=      5-min Rain = 0
KME1 121235Z 21003KT 11/09 A3006 RMK A01 T01090086  RH  086%=      5-min Rain = 0
KME1 121236Z 21003KT 11/09 A3006 RMK A01 T01090086  RH  086%=      5-min Rain = 0
KME1 121237Z 21003KT 11/09 A3006 RMK A01 T01090086  RH  086%=      5-min Rain = 0
KME1 121238Z 21003KT 11/09 A3006 RMK A01 T01090085  RH  085%=      5-min Rain = 0
KME1 121239Z 20003KT 11/09 A3006 RMK A01 T01090086  RH  085%=      5-min Rain = 0
KME1 121240Z 21003KT 11/09 A3006 RMK A01 T01100086  RH  085%=      5-min Rain = 0
KME1 121241Z 21002KT 11/09 A3006 RMK A01 T01100086  RH  085%=      5-min Rain = 0
KME1 121242Z 20002KT 11/09 A3006 RMK A01 T01100086  RH  085%=      5-min Rain = 0
KME1 121243Z 20003KT 11/09 A3006 RMK A01 T01100086  RH  085%=      5-min Rain = 0
KME1 121244Z 20003KT 11/09 A3006 RMK A01 T01110087  RH  085%=      5-min Rain = 0
KME1 121245Z 20003KT 11/09 A3007 RMK A01 T01110086  RH  085%=      5-min Rain = 0
KME1 121246Z 20002KT 11/09 A3007 RMK A01 T01110087  RH  085%=      5-min Rain = 0
KME1 121247Z 20003KT 11/09 A3007 RMK A01 T01110087  RH  085%=      5-min Rain = 0
KME1 121248Z 20003KT 11/09 A3007 RMK A01 T01120087  RH  085%=      5-min Rain = 0
KME1 121249Z 21003KT 11/09 A3007 RMK A01 T01120088  RH  085%=      5-min Rain = 0
KME1 121250Z 21003KT 11/09 A3007 RMK A01 T01130088  RH  085%=      5-min Rain = 0
KME1 121251Z 21003KT 11/09 A3007 RMK A01 T01130088  RH  085%=      5-min Rain = 0
KME1 121252Z 21003KT 11/09 A3007 RMK A01 T01130088  RH  084%=      5-min Rain = 0
KME1 121253Z 21003KT 11/09 A3007 RMK A01 T01140089  RH  085%=      5-min Rain = 0
KME1 121254Z 21002KT 11/09 A3007 RMK A01 T01140088  RH  084%=      5-min Rain = 0
KME1 121255Z 21002KT 11/09 A3007 RMK A01 T01140089  RH  084%=      5-min Rain = 0
KME1 121256Z 21002KT 12/09 A3007 RMK A01 T01150089  RH  084%=      5-min Rain = 0
KME1 121257Z 21002KT 12/09 A3007 RMK A01 T01150089  RH  084%=      5-min Rain = 0
KME1 121258Z 21002KT 12/09 A3007 RMK A01 T01160089  RH  083%=      5-min Rain = 0
KME1 121259Z 21002KT 12/09 A3007 RMK A01 T01160089  RH  083%=      5-min Rain = 0
KME1 121300Z 21003KT 12/09 A3007 RMK A01 T01170089  RH  083%=      5-min Rain = 0
KME1 121301Z 21003KT 12/09 A3007 RMK A01 T01170089  RH  083%=      5-min Rain = 0
KME1 121302Z 20003KT 12/09 A3007 RMK A01 T01170089  RH  083%=      5-min Rain = 0
KME1 121303Z 20003KT 12/09 A3007 RMK A01 T01180089  RH  083%=      5-min Rain = 0
KME1 121304Z 20003KT 12/09 A3007 RMK A01 T01180089  RH  083%=      5-min Rain = 0
KME1 121305Z 21002KT 12/09 A3007 RMK A01 T01180089  RH  083%=      5-min Rain = 0
KME1 121306Z 21002KT 12/09 A3007 RMK A01 T01190089  RH  082%=      5-min Rain = 0
KME1 121307Z 21002KT 12/09 A3007 RMK A01 T01190089  RH  082%=      5-min Rain = 0
KME1 121308Z 21001KT 12/09 A3007 RMK A01 T01200091  RH  082%=      5-min Rain = 0
KME1 121309Z 22002KT 12/09 A3007 RMK A01 T01200090  RH  082%=      5-min Rain = 0
KME1 121310Z 21003KT 12/09 A3007 RMK A01 T01220090  RH  081%=      5-min Rain = 0
KME1 121311Z 21003KT 12/09 A3007 RMK A01 T01220090  RH  081%=      5-min Rain = 0
KME1 121312Z 21003KT 12/09 A3007 RMK A01 T01230090  RH  080%=      5-min Rain = 0
KME1 121313Z 21003KT 12/09 A3007 RMK A01 T01230090  RH  080%=      5-min Rain = 0
KME1 121314Z 21004KT 12/09 A3007 RMK A01 T01240090  RH  080%=      5-min Rain = 0
KME1 121315Z 21004KT 12/09 A3007 RMK A01 T01240090  RH  080%=      5-min Rain = 0
KME1 121316Z 21004KT 13/09 A3007 RMK A01 T01250091  RH  080%=      5-min Rain = 0
KME1 121317Z 21004KT 13/09 A3007 RMK A01 T01250091  RH  080%=      5-min Rain = 0
KME1 121318Z 21003KT 13/09 A3007 RMK A01 T01250090  RH  079%=      5-min Rain = 0
KME1 121319Z 21004KT 13/09 A3007 RMK A01 T01250090  RH  079%=      5-min Rain = 0
KME1 121320Z 22003KT 13/09 A3007 RMK A01 T01260091  RH  079%=      5-min Rain = 0
KME1 121321Z 21004KT 13/09 A3007 RMK A01 T01270091  RH  079%=      5-min Rain = 0
KME1 121322Z 21003KT 13/09 A3007 RMK A01 T01270090  RH  078%=      5-min Rain = 0
KME1 121323Z 21004KT 13/09 A3007 RMK A01 T01270091  RH  078%=      5-min Rain = 0
KME1 121324Z 21004KT 13/09 A3007 RMK A01 T01280092  RH  079%=      5-min Rain = 0
KME1 121325Z 21004KT 13/09 A3007 RMK A01 T01290092  RH  078%=      5-min Rain = 0
KME1 121326Z 21003KT 13/09 A3007 RMK A01 T01300092  RH  078%=      5-min Rain = 0
KME1 121327Z 22002KT 13/09 A3007 RMK A01 T01310092  RH  078%=      5-min Rain = 0
KME1 121328Z 22002KT 13/09 A3007 RMK A01 T01310092  RH  077%=      5-min Rain = 0
KME1 121329Z 21002KT 13/09 A3007 RMK A01 T01320093  RH  077%=      5-min Rain = 0
KME1 121330Z 22002KT 13/09 A3007 RMK A01 T01330094  RH  078%=      5-min Rain = 0
KME1 121331Z 22002KT 13/09 A3007 RMK A01 T01340094  RH  077%=      5-min Rain = 0
KME1 121332Z 21002KT 13/10 A3007 RMK A01 T01340095  RH  077%=      5-min Rain = 0
KME1 121333Z 23001KT 14/10 A3007 RMK A01 T01350096  RH  077%=      5-min Rain = 0
KME1 121334Z 22001KT 14/10 A3007 RMK A01 T01360096  RH  077%=      5-min Rain = 0
KME1 121335Z 20002KT 14/10 A3007 RMK A01 T01370097  RH  077%=      5-min Rain = 0
KME1 121336Z 21002KT 14/10 A3007 RMK A01 T01380098  RH  077%=      5-min Rain = 0
KME1 121337Z 21002KT 14/10 A3007 RMK A01 T01390098  RH  076%=      5-min Rain = 0
KME1 121338Z 21002KT 14/10 A3007 RMK A01 T01400098  RH  076%=      5-min Rain = 0
KME1 121339Z 20002KT 14/10 A3007 RMK A01 T01410098  RH  076%=      5-min Rain = 0
KME1 121340Z 21001KT 14/10 A3007 RMK A01 T01410098  RH  075%=      5-min Rain = 0
KME1 121341Z 21002KT 14/10 A3007 RMK A01 T01420098  RH  075%=      5-min Rain = 0
KME1 121342Z 22002KT 14/10 A3007 RMK A01 T01430099  RH  075%=      5-min Rain = 0
KME1 121343Z 21001KT 15/10 A3007 RMK A01 T01450100  RH  075%=      5-min Rain = 0
KME1 121344Z 21001KT 15/10 A3007 RMK A01 T01460100  RH  074%=      5-min Rain = 0
KME1 121345Z 20001KT 15/10 A3007 RMK A01 T01470101  RH  074%=      5-min Rain = 0
KME1 121346Z 21001KT 15/10 A3007 RMK A01 T01490101  RH  073%=      5-min Rain = 0
KME1 121347Z 20001KT 15/10 A3007 RMK A01 T01500100  RH  072%=      5-min Rain = 0
KME1 121348Z 19000KT 15/10 A3007 RMK A01 T01500101  RH  072%=      5-min Rain = 0
KME1 121349Z 18000KT 15/10 A3007 RMK A01 T01520103  RH  072%=      5-min Rain = 0
KME1 121350Z 00000KT 15/10 A3007 RMK A01 T01540103  RH  071%=      5-min Rain = 0
KME1 121351Z 17000KT 16/10 A3007 RMK A01 T01570104  RH  070%=      5-min Rain = 0
KME1 121352Z 17000KT 16/11 A3007 RMK A01 T01600105  RH  070%=      5-min Rain = 0
KME1 121353Z 20000KT 16/11 A3007 RMK A01 T01620106  RH  069%=      5-min Rain = 0
KME1 121354Z 19000KT 16/11 A3007 RMK A01 T01640106  RH  069%=      5-min Rain = 0
KME1 121355Z 18000KT 17/11 A3007 RMK A01 T01650106  RH  068%=      5-min Rain = 0
KME1 121356Z 18000KT 17/11 A3007 RMK A01 T01660107  RH  068%=      5-min Rain = 0
KME1 121357Z 19001KT 17/11 A3007 RMK A01 T01680108  RH  068%=      5-min Rain = 0
KME1 121358Z 17000KT 17/11 A3007 RMK A01 T01680108  RH  067%=      5-min Rain = 0
KME1 121359Z 20000KT 17/11 A3007 RMK A01 T01690108  RH  067%=      5-min Rain = 0
KME1 121400Z 18000KT 17/11 A3007 RMK A01 T01690108  RH  067%=      5-min Rain = 0
KME1 121401Z 17001KT 17/11 A3007 RMK A01 T01690108  RH  067%=      5-min Rain = 0
KME1 121402Z 17001KT 17/11 A3007 RMK A01 T01710109  RH  067%=      5-min Rain = 0
KME1 121403Z 18000KT 17/11 A3007 RMK A01 T01730110  RH  067%=      5-min Rain = 0
KME1 121404Z 16000KT 17/11 A3007 RMK A01 T01740111  RH  066%=      5-min Rain = 0
KME1 121405Z 13000KT 17/11 A3007 RMK A01 T01740111  RH  066%=      5-min Rain = 0
KME1 121406Z 16001KT 18/11 A3007 RMK A01 T01760113  RH  066%=      5-min Rain = 0
KME1 121407Z 13001KT 18/11 A3007 RMK A01 T01770112  RH  065%=      5-min Rain = 0
KME1 121408Z 15001KT 18/11 A3007 RMK A01 T01780113  RH  066%=      5-min Rain = 0
KME1 121409Z 13000KT 18/11 A3007 RMK A01 T01790112  RH  065%=      5-min Rain = 0
KME1 121410Z 13001KT 18/12 A3007 RMK A01 T01800115  RH  066%=      5-min Rain = 0
KME1 121411Z 13001KT 18/11 A3007 RMK A01 T01800114  RH  065%=      5-min Rain = 0
KME1 121412Z 12001KT 18/12 A3007 RMK A01 T01810115  RH  065%=      5-min Rain = 0
KME1 121413Z 10000KT 18/11 A3007 RMK A01 T01820113  RH  064%=      5-min Rain = 0
KME1 121414Z 10000KT 18/11 A3007 RMK A01 T01820114  RH  064%=      5-min Rain = 0
KME1 121415Z 09000KT 18/12 A3007 RMK A01 T01830115  RH  065%=      5-min Rain = 0
KME1 121416Z 10001KT 18/12 A3007 RMK A01 T01840115  RH  064%=      5-min Rain = 0
KME1 121417Z 09001KT 19/12 A3007 RMK A01 T01860118  RH  064%=      5-min Rain = 0
KME1 121418Z 11001KT 19/12 A3007 RMK A01 T01870116  RH  063%=      5-min Rain = 0
KME1 121419Z 08001KT 19/12 A3007 RMK A01 T01880117  RH  063%=      5-min Rain = 0
KME1 121420Z 07001KT 19/12 A3007 RMK A01 T01890115  RH  062%=      5-min Rain = 0
KME1 121421Z 09000KT 19/12 A3007 RMK A01 T01910117  RH  062%=      5-min Rain = 0
KME1 121422Z 11001KT 19/12 A3007 RMK A01 T01930117  RH  061%=      5-min Rain = 0
KME1 121423Z 10001KT 19/12 A3007 RMK A01 T01940118  RH  062%=      5-min Rain = 0
KME1 121424Z 12001KT 20/12 A3007 RMK A01 T01950117  RH  061%=      5-min Rain = 0
KME1 121425Z 14001KT 20/12 A3007 RMK A01 T01950120  RH  062%=      5-min Rain = 0
KME1 121426Z 12000KT 20/12 A3007 RMK A01 T01960121  RH  062%=      5-min Rain = 0
KME1 121427Z 11000KT 20/12 A3007 RMK A01 T01970119  RH  061%=      5-min Rain = 0
KME1 121428Z 12000KT 20/12 A3007 RMK A01 T01980117  RH  060%=      5-min Rain = 0
KME1 121429Z 11001KT 20/12 A3007 RMK A01 T01990117  RH  059%=      5-min Rain = 0
KME1 121430Z 08000KT 20/12 A3007 RMK A01 T02000119  RH  060%=      5-min Rain = 0
KME1 121431Z 03000KT 20/12 A3007 RMK A01 T02020120  RH  059%=      5-min Rain = 0
KME1 121432Z 06000KT 20/12 A3007 RMK A01 T02030119  RH  059%=      5-min Rain = 0
KME1 121433Z 07001KT 21/12 A3007 RMK A01 T02050120  RH  058%=      5-min Rain = 0
KME1 121434Z 08001KT 21/12 A3007 RMK A01 T02060120  RH  058%=      5-min Rain = 0
KME1 121435Z 08001KT 21/12 A3007 RMK A01 T02060122  RH  058%=      5-min Rain = 0
KME1 121436Z 09001KT 21/12 A3007 RMK A01 T02070121  RH  058%=      5-min Rain = 0
KME1 121437Z 07001KT 21/12 A3007 RMK A01 T02070119  RH  057%=      5-min Rain = 0
KME1 121438Z 13000KT 21/12 A3007 RMK A01 T02070120  RH  057%=      5-min Rain = 0
KME1 121439Z 11002KT 21/12 A3007 RMK A01 T02070120  RH  057%=      5-min Rain = 0
KME1 121440Z 11002KT 21/12 A3007 RMK A01 T02080123  RH  058%=      5-min Rain = 0
KME1 121441Z 10002KT 21/12 A3007 RMK A01 T02090123  RH  058%=      5-min Rain = 0
KME1 121442Z 13001KT 21/12 A3007 RMK A01 T02090121  RH  057%=      5-min Rain = 0
KME1 121443Z 12002KT 21/12 A3007 RMK A01 T02100122  RH  057%=      5-min Rain = 0
KME1 121444Z 11001KT 21/12 A3007 RMK A01 T02110122  RH  057%=      5-min Rain = 0
KME1 121445Z 09000KT 21/12 A3007 RMK A01 T02110122  RH  057%=      5-min Rain = 0
KME1 121446Z 09000KT 21/12 A3007 RMK A01 T02120121  RH  056%=      5-min Rain = 0
KME1 121447Z 10000KT 21/12 A3007 RMK A01 T02120120  RH  056%=      5-min Rain = 0
KME1 121448Z 14000KT 21/12 A3007 RMK A01 T02140121  RH  055%=      5-min Rain = 0
KME1 121449Z 15001KT 21/12 A3007 RMK A01 T02140122  RH  055%=      5-min Rain = 0
KME1 121450Z 13000KT 21/12 A3007 RMK A01 T02140123  RH  056%=      5-min Rain = 0
KME1 121451Z 06001KT 22/13 A3006 RMK A01 T02150125  RH  056%=      5-min Rain = 0
KME1 121452Z 05001KT 22/12 A3006 RMK A01 T02150122  RH  055%=      5-min Rain = 0
KME1 121453Z 04000KT 22/12 A3006 RMK A01 T02160124  RH  056%=      5-min Rain = 0
KME1 121454Z 05001KT 22/12 A3006 RMK A01 T02170123  RH  055%=      5-min Rain = 0
KME1 121455Z 08001KT 22/12 A3006 RMK A01 T02190124  RH  055%=      5-min Rain = 0
KME1 121456Z 06001KT 22/12 A3006 RMK A01 T02210123  RH  054%=      5-min Rain = 0
KME1 121457Z 09000KT 22/13 A3006 RMK A01 T02230125  RH  054%=      5-min Rain = 0
KME1 121458Z 09001KT 23/13 A3006 RMK A01 T02260128  RH  054%=      5-min Rain = 0
KME1 121459Z 11001KT 23/13 A3006 RMK A01 T02280128  RH  053%=      5-min Rain = 0
KME1 121500Z 11001KT 23/13 A3006 RMK A01 T02280125  RH  052%=      5-min Rain = 0
KME1 121501Z 10002KT 23/13 A3006 RMK A01 T02290125  RH  052%=      5-min Rain = 0
KME1 121502Z 08002KT 23/13 A3006 RMK A01 T02300127  RH  052%=      5-min Rain = 0
KME1 121503Z 08001KT 23/13 A3006 RMK A01 T02290125  RH  052%=      5-min Rain = 0
KME1 121504Z 10002KT 23/13 A3006 RMK A01 T02290125  RH  052%=      5-min Rain = 0
KME1 121505Z 09002KT 23/13 A3006 RMK A01 T02300127  RH  052%=      5-min Rain = 0
KME1 121506Z 10001KT 23/13 A3006 RMK A01 T02310125  RH  051%=      5-min Rain = 0
KME1 121507Z 12001KT 23/13 A3006 RMK A01 T02330125  RH  051%=      5-min Rain = 0
KME1 121508Z 10001KT 24/13 A3006 RMK A01 T02360127  RH  051%=      5-min Rain = 0
KME1 121509Z 08001KT 24/13 A3006 RMK A01 T02360126  RH  050%=      5-min Rain = 0
KME1 121510Z 09001KT 24/13 A3006 RMK A01 T02370128  RH  050%=      5-min Rain = 0
KME1 121511Z 12003KT 24/13 A3006 RMK A01 T02380129  RH  051%=      5-min Rain = 0
KME1 121512Z 14003KT 24/13 A3006 RMK A01 T02370130  RH  051%=      5-min Rain = 0
KME1 121513Z 10003KT 24/13 A3006 RMK A01 T02370131  RH  051%=      5-min Rain = 0
KME1 121514Z 09002KT 24/13 A3006 RMK A01 T02380133  RH  052%=      5-min Rain = 0
KME1 121515Z 10002KT 24/13 A3006 RMK A01 T02380132  RH  051%=      5-min Rain = 0
KME1 121516Z 08002KT 24/13 A3006 RMK A01 T02390130  RH  050%=      5-min Rain = 0
KME1 121517Z 08001KT 24/13 A3006 RMK A01 T02390126  RH  049%=      5-min Rain = 0
KME1 121518Z 12001KT 24/13 A3006 RMK A01 T02390127  RH  050%=      5-min Rain = 0
KME1 121519Z 07002KT 24/13 A3006 RMK A01 T02390127  RH  049%=      5-min Rain = 0
KME1 121520Z 05002KT 24/13 A3006 RMK A01 T02410130  RH  050%=      5-min Rain = 0
KME1 121521Z 04002KT 24/13 A3006 RMK A01 T02420127  RH  048%=      5-min Rain = 0
KME1 121522Z 04001KT 24/13 A3006 RMK A01 T02430129  RH  049%=      5-min Rain = 0
KME1 121523Z 01001KT 24/13 A3006 RMK A01 T02440127  RH  048%=      5-min Rain = 0
KME1 121524Z 24000KT 25/13 A3006 RMK A01 T02450125  RH  047%=      5-min Rain = 0
KME1 121525Z 21000KT 25/13 A3006 RMK A01 T02460126  RH  047%=      5-min Rain = 0
KME1 121526Z 24000KT 25/13 A3006 RMK A01 T02470128  RH  047%=      5-min Rain = 0
KME1 121527Z 11001KT 25/13 A3006 RMK A01 T02490133  RH  048%=      5-min Rain = 0
KME1 121528Z 08002KT 25/13 A3006 RMK A01 T02510132  RH  048%=      5-min Rain = 0
KME1 121529Z 10002KT 25/13 A3006 RMK A01 T02510133  RH  048%=      5-min Rain = 0
KME1 121530Z 12001KT 25/13 A3006 RMK A01 T02520133  RH  048%=      5-min Rain = 0
KME1 121531Z 11001KT 25/14 A3006 RMK A01 T02530135  RH  048%=      5-min Rain = 0
KME1 121532Z 10002KT 26/14 A3006 RMK A01 T02550137  RH  048%=      5-min Rain = 0
KME1 121533Z 10003KT 26/14 A3006 RMK A01 T02560137  RH  048%=      5-min Rain = 0
KME1 121534Z 09003KT 26/13 A3006 RMK A01 T02570133  RH  046%=      5-min Rain = 0
KME1 121535Z 12003KT 26/13 A3006 RMK A01 T02560131  RH  046%=      5-min Rain = 0
KME1 121536Z 10003KT 26/13 A3006 RMK A01 T02550131  RH  046%=      5-min Rain = 0
KME1 121537Z 12003KT 26/13 A3006 RMK A01 T02550133  RH  047%=      5-min Rain = 0
KME1 121538Z 14002KT 26/13 A3006 RMK A01 T02550133  RH  047%=      5-min Rain = 0
KME1 121539Z 12002KT 26/14 A3006 RMK A01 T02570136  RH  047%=      5-min Rain = 0
KME1 121540Z 14003KT 26/13 A3006 RMK A01 T02590133  RH  046%=      5-min Rain = 0
KME1 121541Z 12003KT 26/13 A3006 RMK A01 T02600133  RH  045%=      5-min Rain = 0
KME1 121542Z 15002KT 26/13 A3006 RMK A01 T02600131  RH  045%=      5-min Rain = 0
KME1 121543Z 16002KT 26/13 A3006 RMK A01 T02600129  RH  044%=      5-min Rain = 0
KME1 121544Z 10002KT 26/13 A3006 RMK A01 T02590131  RH  045%=      5-min Rain = 0
KME1 121545Z 12001KT 26/14 A3006 RMK A01 T02600135  RH  046%=      5-min Rain = 0
KME1 121546Z 12002KT 26/13 A3006 RMK A01 T02620131  RH  044%=      5-min Rain = 0
KME1 121547Z 13002KT 26/13 A3006 RMK A01 T02630127  RH  043%=      5-min Rain = 0
KME1 121548Z 15001KT 26/13 A3006 RMK A01 T02640129  RH  043%=      5-min Rain = 0
KME1 121549Z 11001KT 26/13 A3006 RMK A01 T02640132  RH  044%=      5-min Rain = 0
KME1 121550Z 13003KT 27/13 A3006 RMK A01 T02670133  RH  044%=      5-min Rain = 0
KME1 121551Z 09003KT 27/13 A3006 RMK A01 T02680128  RH  042%=      5-min Rain = 0
KME1 121552Z 04002KT 27/12 A3006 RMK A01 T02670124  RH  041%=      5-min Rain = 0
KME1 121553Z 04002KT 27/12 A3006 RMK A01 T02650122  RH  041%=      5-min Rain = 0
KME1 121554Z 01001KT 27/12 A3006 RMK A01 T02650123  RH  041%=      5-min Rain = 0
KME1 121555Z 26002KT 27/12 A3006 RMK A01 T02650124  RH  042%=      5-min Rain = 0
KME1 121556Z 25004KT 27/12 A3006 RMK A01 T02680123  RH  040%=      5-min Rain = 0
KME1 121557Z 26006KT 27/12 A3006 RMK A01 T02700117  RH  038%=      5-min Rain = 0
KME1 121558Z 27005KT 27/12 A3006 RMK A01 T02720118  RH  038%=      5-min Rain = 0
KME1 121559Z 27004KT 27/12 A3006 RMK A01 T02730115  RH  037%=      5-min Rain = 0
KME1 121600Z 26003KT 27/12 A3006 RMK A01 T02730117  RH  038%=      5-min Rain = 0
KME1 121601Z 28001KT 27/12 A3006 RMK A01 T02730116  RH  037%=      5-min Rain = 0
KME1 121602Z 24003KT 27/12 A3006 RMK A01 T02740120  RH  038%=      5-min Rain = 0
KME1 121603Z 27003KT 28/12 A3006 RMK A01 T02770122  RH  038%=      5-min Rain = 0
KME1 121604Z 31004KT 28/12 A3006 RMK A01 T02790120  RH  037%=      5-min Rain = 0
KME1 121605Z 26007KT 28/12 A3005 RMK A01 T02790119  RH  037%=      5-min Rain = 0
KME1 121606Z 27006KT 28/12 A3005 RMK A01 T02790119  RH  037%=      5-min Rain = 0
KME1 121607Z 28003KT 28/12 A3006 RMK A01 T02780117  RH  037%=      5-min Rain = 0
KME1 121608Z 29003KT 28/12 A3006 RMK A01 T02780121  RH  038%=      5-min Rain = 0
KME1 121609Z 30002KT 28/12 A3006 RMK A01 T02790117  RH  037%=      5-min Rain = 0
KME1 121610Z 26004KT 28/12 A3006 RMK A01 T02790118  RH  037%=      5-min Rain = 0
KME1 121611Z 26002KT 28/11 A3005 RMK A01 T02780111  RH  035%=      5-min Rain = 0
KME1 121612Z 24003KT 28/12 A3005 RMK A01 T02770115  RH  037%=      5-min Rain = 0
KME1 121613Z 22002KT 28/12 A3005 RMK A01 T02780116  RH  037%=      5-min Rain = 0
KME1 121614Z 25002KT 28/12 A3005 RMK A01 T02800116  RH  036%=      5-min Rain = 0
KME1 121615Z 30004KT 28/12 A3005 RMK A01 T02810120  RH  037%=      5-min Rain = 0
KME1 121616Z 31002KT 28/12 A3005 RMK A01 T02810116  RH  036%=      5-min Rain = 0
KME1 121617Z 21002KT 28/12 A3005 RMK A01 T02810117  RH  036%=      5-min Rain = 0
KME1 121618Z 23004KT 28/12 A3005 RMK A01 T02820119  RH  036%=      5-min Rain = 0
KME1 121619Z 25003KT 28/12 A3005 RMK A01 T02830121  RH  037%=      5-min Rain = 0
KME1 121620Z 33004KT 28/12 A3005 RMK A01 T02840122  RH  037%=      5-min Rain = 0
KME1 121621Z 34004KT 29/12 A3005 RMK A01 T02850119  RH  036%=      5-min Rain = 0
KME1 121622Z 33006KT 29/12 A3005 RMK A01 T02850119  RH  036%=      5-min Rain = 0
KME1 121623Z 32006KT 29/12 A3005 RMK A01 T02850115  RH  035%=      5-min Rain = 0
KME1 121624Z 30005KT 29/12 A3005 RMK A01 T02850118  RH  036%=      5-min Rain = 0
KME1 121625Z 30003KT 29/11 A3005 RMK A01 T02850112  RH  034%=      5-min Rain = 0
KME1 121626Z 28003KT 29/12 A3005 RMK A01 T02850117  RH  035%=      5-min Rain = 0
KME1 121627Z 21001KT 29/11 A3005 RMK A01 T02850112  RH  034%=      5-min Rain = 0
KME1 121628Z 32001KT 28/11 A3005 RMK A01 T02840114  RH  035%=      5-min Rain = 0
KME1 121629Z 28002KT 29/12 A3005 RMK A01 T02860116  RH  035%=      5-min Rain = 0
KME1 121630Z 30005KT 29/12 A3005 RMK A01 T02880118  RH  035%=      5-min Rain = 0
KME1 121631Z 31004KT 29/12 A3005 RMK A01 T02890117  RH  035%=      5-min Rain = 0
KME1 121632Z 32004KT 29/11 A3005 RMK A01 T02890114  RH  034%=      5-min Rain = 0
KME1 121633Z 32002KT 29/11 A3005 RMK A01 T02870114  RH  034%=      5-min Rain = 0
KME1 121634Z 31003KT 29/12 A3005 RMK A01 T02870116  RH  035%=      5-min Rain = 0
KME1 121635Z 30007KT 29/12 A3005 RMK A01 T02870117  RH  035%=      5-min Rain = 0
KME1 121636Z 29006KT 29/12 A3005 RMK A01 T02880115  RH  034%=      5-min Rain = 0
KME1 121637Z 29004KT 29/11 A3005 RMK A01 T02880114  RH  034%=      5-min Rain = 0
KME1 121638Z 30005KT 29/12 A3005 RMK A01 T02890118  RH  035%=      5-min Rain = 0
KME1 121639Z 31005KT 29/11 A3005 RMK A01 T02900114  RH  034%=      5-min Rain = 0
KME1 121640Z 29004KT 29/11 A3005 RMK A01 T02900114  RH  034%=      5-min Rain = 0
KME1 121641Z 33003KT 29/11 A3005 RMK A01 T02880114  RH  034%=      5-min Rain = 0
KME1 121642Z 31005KT 29/12 A3005 RMK A01 T02880117  RH  035%=      5-min Rain = 0
KME1 121643Z 28004KT 29/12 A3005 RMK A01 T02880116  RH  034%=      5-min Rain = 0
KME1 121644Z 23004KT 29/11 A3005 RMK A01 T02880114  RH  034%=      5-min Rain = 0
KME1 121645Z 23003KT 29/11 A3005 RMK A01 T02880112  RH  034%=      5-min Rain = 0
KME1 121646Z 22001KT 29/11 A3005 RMK A01 T02860110  RH  033%=      5-min Rain = 0
KME1 121647Z 16000KT 29/11 A3004 RMK A01 T02860113  RH  034%=      5-min Rain = 0
KME1 121648Z 23001KT 29/11 A3004 RMK A01 T02890114  RH  034%=      5-min Rain = 0
KME1 121649Z 20002KT 29/11 A3004 RMK A01 T02910113  RH  033%=      5-min Rain = 0
KME1 121650Z 30007KT 29/12 A3004 RMK A01 T02930118  RH  034%=      5-min Rain = 0
KME1 121651Z 30005KT 29/12 A3004 RMK A01 T02930116  RH  033%=      5-min Rain = 0
KME1 121652Z 28004KT 29/12 A3004 RMK A01 T02930118  RH  034%=      5-min Rain = 0
KME1 121653Z 29003KT 29/11 A3004 RMK A01 T02920112  RH  033%=      5-min Rain = 0
KME1 121654Z 01002KT 29/12 A3004 RMK A01 T02900115  RH  034%=      5-min Rain = 0
KME1 121655Z 35003KT 29/12 A3004 RMK A01 T02900118  RH  034%=      5-min Rain = 0
KME1 121656Z 02002KT 29/11 A3004 RMK A01 T02910114  RH  033%=      5-min Rain = 0
KME1 121657Z 01003KT 29/11 A3004 RMK A01 T02910113  RH  033%=      5-min Rain = 0
KME1 121658Z 01003KT 29/11 A3004 RMK A01 T02920114  RH  033%=      5-min Rain = 0
KME1 121659Z 01004KT 29/12 A3004 RMK A01 T02930118  RH  034%=      5-min Rain = 0
KME1 121700Z 35004KT 29/12 A3004 RMK A01 T02940116  RH  033%=      5-min Rain = 0
KME1 121701Z 35003KT 29/11 A3004 RMK A01 T02930114  RH  033%=      5-min Rain = 0
KME1 121702Z 34002KT 29/11 A3004 RMK A01 T02930114  RH  033%=      5-min Rain = 0
KME1 121703Z 30005KT 29/12 A3004 RMK A01 T02930117  RH  034%=      5-min Rain = 0
KME1 121704Z 34006KT 30/12 A3004 RMK A01 T02960122  RH  034%=      5-min Rain = 0
KME1 121705Z 33005KT 30/12 A3004 RMK A01 T02980118  RH  033%=      5-min Rain = 0
KME1 121706Z 32007KT 30/12 A3004 RMK A01 T02980116  RH  033%=      5-min Rain = 0
KME1 121707Z 32003KT 30/11 A3004 RMK A01 T02960112  RH  032%=      5-min Rain = 0
KME1 121708Z 33002KT 30/12 A3004 RMK A01 T02960117  RH  033%=      5-min Rain = 0
KME1 121709Z 05001KT 30/11 A3004 RMK A01 T02960113  RH  032%=      5-min Rain = 0
KME1 121710Z 26003KT 30/11 A3004 RMK A01 T02960114  RH  032%=      5-min Rain = 0
KME1 121711Z 25001KT 30/11 A3004 RMK A01 T02980110  RH  031%=      5-min Rain = 0
KME1 121712Z 36001KT 30/11 A3004 RMK A01 T02970109  RH  031%=      5-min Rain = 0
KME1 121713Z 33003KT 30/12 A3004 RMK A01 T02970117  RH  033%=      5-min Rain = 0
KME1 121714Z 32003KT 30/12 A3004 RMK A01 T02980117  RH  033%=      5-min Rain = 0
KME1 121715Z 34008KT 30/12 A3004 RMK A01 T03000120  RH  033%=      5-min Rain = 0
KME1 121716Z 31009KT 30/12 A3004 RMK A01 T03010119  RH  033%=      5-min Rain = 0
KME1 121717Z 31007KT 30/12 A3004 RMK A01 T03010119  RH  033%=      5-min Rain = 0
KME1 121718Z 31005KT 30/12 A3004 RMK A01 T03020117  RH  032%=      5-min Rain = 0
KME1 121719Z 01008KT 30/12 A3004 RMK A01 T03020119  RH  032%=      5-min Rain = 0
KME1 121720Z 01007KT 30/12 A3004 RMK A01 T03010116  RH  032%=      5-min Rain = 0
KME1 121721Z 36006KT 30/12 A3004 RMK A01 T02990115  RH  032%=      5-min Rain = 0
KME1 121722Z 33005KT 30/12 A3004 RMK A01 T02980119  RH  033%=      5-min Rain = 0
KME1 121723Z 32005KT 30/12 A3004 RMK A01 T02990115  RH  032%=      5-min Rain = 0
KME1 121724Z 31004KT 30/11 A3004 RMK A01 T02980114  RH  032%=      5-min Rain = 0
KME1 121725Z 30003KT 30/11 A3004 RMK A01 T02970113  RH  032%=      5-min Rain = 0
KME1 121726Z 28003KT 30/12 A3004 RMK A01 T02970115  RH  033%=      5-min Rain = 0
KME1 121727Z 29002KT 30/11 A3004 RMK A01 T02970113  RH  032%=      5-min Rain = 0
KME1 121728Z 25001KT 30/11 A3003 RMK A01 T02970114  RH  032%=      5-min Rain = 0
KME1 121729Z 29002KT 30/12 A3003 RMK A01 T02970116  RH  033%=      5-min Rain = 0
KME1 121730Z 24002KT 30/12 A3003 RMK A01 T02980116  RH  033%=      5-min Rain = 0
KME1 121731Z 26003KT 30/12 A3003 RMK A01 T02990116  RH  032%=      5-min Rain = 0
KME1 121732Z 27005KT 30/11 A3003 RMK A01 T02970112  RH  032%=      5-min Rain = 0
KME1 121733Z 27003KT 29/11 A3003 RMK A01 T02940113  RH  033%=      5-min Rain = 0
KME1 121734Z 24002KT 29/11 A3003 RMK A01 T02940113  RH  033%=      5-min Rain = 0
KME1 121735Z 30001KT 29/11 A3003 RMK A01 T02940111  RH  032%=      5-min Rain = 0
KME1 121736Z 02003KT 30/11 A3003 RMK A01 T02950114  RH  033%=      5-min Rain = 0
KME1 121737Z 05004KT 30/11 A3003 RMK A01 T02960114  RH  032%=      5-min Rain = 0
KME1 121738Z 05003KT 30/11 A3003 RMK A01 T02960113  RH  032%=      5-min Rain = 0
KME1 121739Z 08001KT 29/11 A3003 RMK A01 T02940110  RH  032%=      5-min Rain = 0
KME1 121740Z 33000KT 29/11 A3003 RMK A01 T02940110  RH  032%=      5-min Rain = 0
KME1 121741Z 35002KT 30/11 A3003 RMK A01 T02950111  RH  032%=      5-min Rain = 0
KME1 121742Z 35003KT 30/11 A3003 RMK A01 T02960114  RH  033%=      5-min Rain = 0
KME1 121743Z 34008KT 30/12 A3003 RMK A01 T02980119  RH  033%=      5-min Rain = 0
KME1 121744Z 33010KT 30/12 A3003 RMK A01 T03010118  RH  032%=      5-min Rain = 0
KME1 121745Z 32007KT 30/12 A3003 RMK A01 T03020119  RH  032%=      5-min Rain = 0
KME1 121746Z 31008KT 30/12 A3003 RMK A01 T03030121  RH  033%=      5-min Rain = 0
KME1 121747Z 31006G11KT 30/12 A3003 RMK A01 T03040116  RH  031%=      5-min Rain = 0
KME1 121748Z 30004KT 30/12 A3003 RMK A01 T03020116  RH  032%=      5-min Rain = 0
KME1 121749Z 35006KT 30/12 A3003 RMK A01 T03020119  RH  033%=      5-min Rain = 0
KME1 121750Z 36003KT 30/11 A3003 RMK A01 T03020114  RH  031%=      5-min Rain = 0
KME1 121751Z 03002KT 30/11 A3003 RMK A01 T03010112  RH  031%=      5-min Rain = 0
KME1 121752Z 33002KT 30/11 A3002 RMK A01 T03000110  RH  031%=      5-min Rain = 0
KME1 121753Z 29003KT 30/11 A3002 RMK A01 T03000112  RH  031%=      5-min Rain = 0
KME1 121754Z 02005KT 30/11 A3002 RMK A01 T03000114  RH  032%=      5-min Rain = 0
KME1 121755Z 02004KT 30/12 A3002 RMK A01 T03010118  RH  032%=      5-min Rain = 0
KME1 121756Z 01006KT 30/12 A3002 RMK A01 T03020118  RH  032%=      5-min Rain = 0
KME1 121757Z 01005KT 30/12 A3002 RMK A01 T03040119  RH  032%=      5-min Rain = 0
KME1 121758Z 01005KT 30/12 A3002 RMK A01 T03040120  RH  032%=      5-min Rain = 0
KME1 121759Z 02003KT 31/12 A3002 RMK A01 T03050121  RH  032%=      5-min Rain = 0
KME1 121800Z 26004KT 31/12 A3002 RMK A01 T03080119  RH  031%=      5-min Rain = 0
KME1 121801Z 30004KT 31/12 A3002 RMK A01 T03080120  RH  031%=      5-min Rain = 0
KME1 121802Z 31004KT 31/12 A3002 RMK A01 T03080118  RH  031%=      5-min Rain = 0
KME1 121803Z 32003KT 31/12 A3002 RMK A01 T03070119  RH  031%=      5-min Rain = 0
KME1 121804Z 30002KT 31/12 A3002 RMK A01 T03070115  RH  031%=      5-min Rain = 0
KME1 121805Z 34002KT 31/12 A3002 RMK A01 T03060116  RH  031%=      5-min Rain = 0
KME1 121806Z 35005KT 31/12 A3002 RMK A01 T03060121  RH  032%=      5-min Rain = 0
KME1 121807Z 03005KT 31/12 A3002 RMK A01 T03080122  RH  032%=      5-min Rain = 0
KME1 121808Z 05004KT 31/12 A3002 RMK A01 T03090121  RH  032%=      5-min Rain = 0
KME1 121809Z 02005KT 31/12 A3002 RMK A01 T03100118  RH  031%=      5-min Rain = 0
KME1 121810Z 02005KT 31/12 A3001 RMK A01 T03100121  RH  031%=      5-min Rain = 0
KME1 121811Z 35004KT 31/12 A3001 RMK A01 T03100120  RH  031%=      5-min Rain = 0
KME1 121812Z 30003KT 31/12 A3001 RMK A01 T03100120  RH  031%=      5-min Rain = 0
KME1 121813Z 27004KT 31/12 A3001 RMK A01 T03090115  RH  030%=      5-min Rain = 0
KME1 121814Z 26002KT 31/12 A3001 RMK A01 T03070116  RH  031%=      5-min Rain = 0
KME1 121815Z 29002KT 31/12 A3001 RMK A01 T03060119  RH  032%=      5-min Rain = 0
KME1 121816Z 34002KT 31/12 A3001 RMK A01 T03070116  RH  031%=      5-min Rain = 0
KME1 121817Z 34002KT 31/12 A3001 RMK A01 T03080117  RH  031%=      5-min Rain = 0
KME1 121818Z 35002KT 31/12 A3001 RMK A01 T03090119  RH  031%=      5-min Rain = 0
KME1 121819Z 36003KT 31/12 A3001 RMK A01 T03110122  RH  031%=      5-min Rain = 0
KME1 121820Z 35009KT 31/12 A3001 RMK A01 T03130124  RH  031%=      5-min Rain = 0
KME1 121821Z 36007KT 32/12 A3001 RMK A01 T03150119  RH  030%=      5-min Rain = 0
KME1 121822Z 33007KT 31/12 A3001 RMK A01 T03140121  RH  031%=      5-min Rain = 0
KME1 121823Z 31010KT 31/12 A3001 RMK A01 T03140121  RH  031%=      5-min Rain = 0
KME1 121824Z 30010KT 31/12 A3001 RMK A01 T03140119  RH  030%=      5-min Rain = 0
KME1 121825Z 30007KT 31/12 A3001 RMK A01 T03130118  RH  030%=      5-min Rain = 0
KME1 121826Z 30004KT 31/12 A3001 RMK A01 T03120118  RH  031%=      5-min Rain = 0
KME1 121827Z 30003KT 31/12 A30 RMK A01 T03120116  RH  030%=      5-min Rain = 0
KME1 121828Z 23003KT 31/12 A30 RMK A01 T03110117  RH  030%=      5-min Rain = 0
KME1 121829Z 22003KT 31/12 A30 RMK A01 T03120119  RH  031%=      5-min Rain = 0
KME1 121830Z 23000KT 31/12 A30 RMK A01 T03140116  RH  030%=      5-min Rain = 0
KME1 121831Z 35001KT 32/12 A30 RMK A01 T03150115  RH  029%=      5-min Rain = 0
KME1 121832Z 33004KT 32/12 A30 RMK A01 T03160118  RH  030%=      5-min Rain = 0
KME1 121833Z 30004KT 32/12 A30 RMK A01 T03150117  RH  030%=      5-min Rain = 0
KME1 121834Z 30003KT 31/11 A30 RMK A01 T03140114  RH  029%=      5-min Rain = 0
KME1 121835Z 29001KT 31/11 A30 RMK A01 T03130114  RH  030%=      5-min Rain = 0
KME1 121836Z 04004KT 31/12 A30 RMK A01 T03130118  RH  030%=      5-min Rain = 0
KME1 121837Z 03007KT 32/12 A30 RMK A01 T03150121  RH  030%=      5-min Rain = 0
KME1 121838Z 02005KT 32/12 A30 RMK A01 T03160119  RH  030%=      5-min Rain = 0
KME1 121839Z 03003KT 32/12 A30 RMK A01 T03170119  RH  030%=      5-min Rain = 0
KME1 121840Z 14004KT 32/11 A2999 RMK A01 T03160114  RH  029%=      5-min Rain = 0
KME1 121841Z 04004KT 31/12 A2999 RMK A01 T03140120  RH  030%=      5-min Rain = 0
KME1 121842Z 02001KT 32/11 A2999 RMK A01 T03150113  RH  029%=      5-min Rain = 0
KME1 121843Z 07003KT 32/12 A2999 RMK A01 T03160116  RH  029%=      5-min Rain = 0
KME1 121844Z 05005KT 32/12 A2999 RMK A01 T03160118  RH  030%=      5-min Rain = 0
KME1 121845Z 31008G13KT 32/12 A2999 RMK A01 T03160121  RH  030%=      5-min Rain = 0
KME1 121846Z 32005KT 32/12 A2999 RMK A01 T03170117  RH  029%=      5-min Rain = 0
KME1 121847Z 30005KT 32/12 A2999 RMK A01 T03170120  RH  030%=      5-min Rain = 0
KME1 121848Z 30005KT 32/12 A2999 RMK A01 T03170117  RH  029%=      5-min Rain = 0
KME1 121849Z 32003KT 32/12 A2999 RMK A01 T03180118  RH  029%=      5-min Rain = 0
KME1 121850Z 33004KT 32/12 A2999 RMK A01 T03190118  RH  029%=      5-min Rain = 0
KME1 121851Z 33007KT 32/12 A2999 RMK A01 T03200119  RH  029%=      5-min Rain = 0
KME1 121852Z 30007KT 32/12 A2999 RMK A01 T03200119  RH  029%=      5-min Rain = 0
KME1 121853Z 28005KT 32/12 A2998 RMK A01 T03200120  RH  029%=      5-min Rain = 0
KME1 121854Z 32004G9KT 32/12 A2998 RMK A01 T03210121  RH  029%=      5-min Rain = 0
KME1 121855Z 35007KT 32/12 A2998 RMK A01 T03220120  RH  029%=      5-min Rain = 0
KME1 121856Z 36007KT 32/12 A2998 RMK A01 T03210119  RH  029%=      5-min Rain = 0
KME1 121857Z 32004G9KT 32/12 A2998 RMK A01 T03200124  RH  030%=      5-min Rain = 0
KME1 121858Z 27004KT 32/12 A2998 RMK A01 T03230122  RH  029%=      5-min Rain = 0
KME1 121859Z 25003KT 32/12 A2998 RMK A01 T03240122  RH  029%=      5-min Rain = 0
KME1 121900Z 30007KT 33/12 A2998 RMK A01 T03250122  RH  029%=      5-min Rain = 0
KME1 121901Z 34008KT 33/12 A2998 RMK A01 T03250122  RH  029%=      5-min Rain = 0
KME1 121902Z 36008KT 33/12 A2998 RMK A01 T03250123  RH  029%=      5-min Rain = 0
KME1 121903Z 36008G13KT 33/13 A2998 RMK A01 T03250125  RH  030%=      5-min Rain = 0
KME1 121904Z 01009KT 33/12 A2998 RMK A01 T03250122  RH  029%=      5-min Rain = 0
KME1 121905Z 02008KT 33/12 A2998 RMK A01 T03250123  RH  029%=      5-min Rain = 0
KME1 121906Z 00006KT 33/13 A2998 RMK A01 T03260125  RH  030%=      5-min Rain = 0
KME1 121907Z 03006KT 33/12 A2998 RMK A01 T03270123  RH  029%=      5-min Rain = 0
KME1 121908Z 03007KT 33/13 A2998 RMK A01 T03280126  RH  029%=      5-min Rain = 0
KME1 121909Z 03005KT 33/12 A2998 RMK A01 T03280123  RH  029%=      5-min Rain = 0
KME1 121910Z 00003KT 33/12 A2998 RMK A01 T03270119  RH  028%=      5-min Rain = 0
KME1 121911Z 06004KT 33/12 A2997 RMK A01 T03260120  RH  028%=      5-min Rain = 0
KME1 121912Z 08003KT 32/12 A2997 RMK A01 T03240116  RH  028%=      5-min Rain = 0
KME1 121913Z 04007KT 32/12 A2997 RMK A01 T03230123  RH  030%=      5-min Rain = 0
KME1 121914Z 03006KT 33/12 A2997 RMK A01 T03250121  RH  029%=      5-min Rain = 0
KME1 121915Z 03005KT 33/12 A2997 RMK A01 T03250120  RH  029%=      5-min Rain = 0
KME1 121916Z 01006KT 33/12 A2997 RMK A01 T03250120  RH  029%=      5-min Rain = 0
KME1 121917Z 01005KT 33/12 A2997 RMK A01 T03250119  RH  029%=      5-min Rain = 0
KME1 121918Z 00007KT 33/12 A2997 RMK A01 T03250123  RH  029%=      5-min Rain = 0
KME1 121919Z 34005KT 33/12 A2997 RMK A01 T03260118  RH  028%=      5-min Rain = 0
KME1 121920Z 34004KT 33/12 A2997 RMK A01 T03250123  RH  029%=      5-min Rain = 0
KME1 121921Z 00005KT 33/12 A2997 RMK A01 T03250122  RH  029%=      5-min Rain = 0
KME1 121922Z 34008KT 33/12 A2997 RMK A01 T03260120  RH  028%=      5-min Rain = 0
KME1 121923Z 35007G12KT 33/12 A2997 RMK A01 T03260118  RH  028%=      5-min Rain = 0
KME1 121924Z 36010KT 32/12 A2997 RMK A01 T03240120  RH  029%=      5-min Rain = 0
KME1 121925Z 00008KT 32/12 A2997 RMK A01 T03240119  RH  029%=      5-min Rain = 0
KME1 121926Z 02008KT 32/12 A2997 RMK A01 T03240121  RH  029%=      5-min Rain = 0
KME1 121927Z 02007KT 32/12 A2997 RMK A01 T03240118  RH  028%=      5-min Rain = 0
KME1 121928Z 04003KT 32/12 A2997 RMK A01 T03240118  RH  028%=      5-min Rain = 0
KME1 121929Z 05002KT 32/12 A2997 RMK A01 T03230116  RH  028%=      5-min Rain = 0
KME1 121930Z 02003KT 32/12 A2997 RMK A01 T03230117  RH  028%=      5-min Rain = 0
KME1 121931Z 35006KT 33/12 A2997 RMK A01 T03250123  RH  029%=      5-min Rain = 0
KME1 121932Z 33005KT 33/12 A2997 RMK A01 T03270121  RH  028%=      5-min Rain = 0
KME1 121933Z 31003KT 33/12 A2997 RMK A01 T03280123  RH  029%=      5-min Rain = 0
KME1 121934Z 33006KT 33/13 A2997 RMK A01 T03290127  RH  029%=      5-min Rain = 0
KME1 121935Z 35006KT 33/12 A2997 RMK A01 T03320123  RH  028%=      5-min Rain = 0
KME1 121936Z 35005KT 33/12 A2996 RMK A01 T03320121  RH  028%=      5-min Rain = 0
KME1 121937Z 02004KT 33/12 A2996 RMK A01 T03300123  RH  028%=      5-min Rain = 0
KME1 121938Z 03008KT 33/13 A2996 RMK A01 T03310127  RH  029%=      5-min Rain = 0
KME1 121939Z 02006KT 33/12 A2996 RMK A01 T03330124  RH  028%=      5-min Rain = 0
KME1 121940Z 02006KT 33/13 A2996 RMK A01 T03330126  RH  029%=      5-min Rain = 0
KME1 121941Z 01005KT 33/13 A2996 RMK A01 T03330126  RH  028%=      5-min Rain = 0
KME1 121942Z 01004KT 33/12 A2996 RMK A01 T03330120  RH  027%=      5-min Rain = 0
KME1 121943Z 07001KT 33/12 A2996 RMK A01 T03300115  RH  027%=      5-min Rain = 0
KME1 121944Z 10003KT 33/12 A2996 RMK A01 T03270118  RH  028%=      5-min Rain = 0
KME1 121945Z 10005KT 33/13 A2996 RMK A01 T03260125  RH  029%=      5-min Rain = 0
KME1 121946Z 12005KT 33/12 A2995 RMK A01 T03280118  RH  028%=      5-min Rain = 0
KME1 121947Z 14004KT 33/12 A2995 RMK A01 T03260119  RH  028%=      5-min Rain = 0
KME1 121948Z 12002KT 33/12 A2995 RMK A01 T03260118  RH  028%=      5-min Rain = 0
KME1 121949Z 27002G7KT 33/12 A2995 RMK A01 T03280121  RH  028%=      5-min Rain = 0
KME1 121950Z 30005KT 33/12 A2995 RMK A01 T03300121  RH  028%=      5-min Rain = 0
KME1 121951Z 34006KT 33/12 A2995 RMK A01 T03310120  RH  028%=      5-min Rain = 0
KME1 121952Z 34004KT 33/12 A2995 RMK A01 T03300118  RH  028%=      5-min Rain = 0
KME1 121953Z 31002KT 33/12 A2995 RMK A01 T03270118  RH  028%=      5-min Rain = 0
KME1 121954Z 34002KT 33/12 A2995 RMK A01 T03270120  RH  028%=      5-min Rain = 0
KME1 121955Z 34002KT 33/12 A2995 RMK A01 T03260118  RH  028%=      5-min Rain = 0
KME1 121956Z 30005KT 33/12 A2995 RMK A01 T03270122  RH  029%=      5-min Rain = 0
KME1 121957Z 30005KT 33/12 A2995 RMK A01 T03290121  RH  028%=      5-min Rain = 0
KME1 121958Z 31004KT 33/12 A2995 RMK A01 T03300120  RH  028%=      5-min Rain = 0
KME1 121959Z 34006KT 33/13 A2995 RMK A01 T03310127  RH  029%=      5-min Rain = 0
KME1 122000Z 34008KT 33/13 A2995 RMK A01 T03330125  RH  028%=      5-min Rain = 0
KME1 122001Z 35008KT 34/13 A2995 RMK A01 T03350126  RH  028%=      5-min Rain = 0
KME1 122002Z 35007KT 34/12 A2995 RMK A01 T03360121  RH  027%=      5-min Rain = 0
KME1 122003Z 35007KT 33/13 A2995 RMK A01 T03340126  RH  028%=      5-min Rain = 0
KME1 122004Z 36007KT 34/13 A2995 RMK A01 T03350128  RH  028%=      5-min Rain = 0
KME1 122005Z 36008KT 34/12 A2995 RMK A01 T03370124  RH  028%=      5-min Rain = 0
KME1 122006Z 36009KT 34/13 A2995 RMK A01 T03360125  RH  028%=      5-min Rain = 0
KME1 122007Z 02010KT 33/12 A2994 RMK A01 T03340123  RH  028%=      5-min Rain = 0
KME1 122008Z 02008KT 33/12 A2994 RMK A01 T03340122  RH  028%=      5-min Rain = 0
KME1 122009Z 00007KT 33/12 A2994 RMK A01 T03330124  RH  028%=      5-min Rain = 0
KME1 122010Z 05009KT 33/13 A2994 RMK A01 T03340127  RH  029%=      5-min Rain = 0
KME1 122011Z 07007KT 33/12 A2994 RMK A01 T03340124  RH  028%=      5-min Rain = 0
KME1 122012Z 11003KT 33/12 A2994 RMK A01 T03340121  RH  027%=      5-min Rain = 0
KME1 122013Z 03002KT 33/12 A2994 RMK A01 T03320117  RH  027%=      5-min Rain = 0
KME1 122014Z 03003KT 33/12 A2994 RMK A01 T03300121  RH  028%=      5-min Rain = 0
KME1 122015Z 01007KT 33/13 A2994 RMK A01 T03320126  RH  029%=      5-min Rain = 0
KME1 122016Z 00004KT 33/12 A2994 RMK A01 T03330120  RH  027%=      5-min Rain = 0
KME1 122017Z 01002KT 33/12 A2994 RMK A01 T03310119  RH  027%=      5-min Rain = 0
KME1 122018Z 01008KT 33/12 A2994 RMK A01 T03310124  RH  028%=      5-min Rain = 0
KME1 122019Z 03007KT 33/12 A2994 RMK A01 T03320123  RH  028%=      5-min Rain = 0
KME1 122020Z 03005KT 33/12 A2994 RMK A01 T03320123  RH  028%=      5-min Rain = 0
KME1 122021Z 02008KT 33/12 A2994 RMK A01 T03330124  RH  028%=      5-min Rain = 0
KME1 122022Z 04004KT 33/12 A2994 RMK A01 T03340119  RH  027%=      5-min Rain = 0
KME1 122023Z 02004KT 33/12 A2994 RMK A01 T03340120  RH  027%=      5-min Rain = 0
KME1 122024Z 34001KT 33/12 A2994 RMK A01 T03340117  RH  027%=      5-min Rain = 0
KME1 122025Z 08003KT 33/12 A2993 RMK A01 T03340115  RH  026%=      5-min Rain = 0
KME1 122026Z 14002KT 33/12 A2993 RMK A01 T03320118  RH  027%=      5-min Rain = 0
KME1 122027Z 16001KT 33/12 A2993 RMK A01 T03310115  RH  027%=      5-min Rain = 0
KME1 122028Z 34001KT 33/11 A2993 RMK A01 T03320114  RH  027%=      5-min Rain = 0
KME1 122029Z 00003KT 33/12 A2993 RMK A01 T03330122  RH  028%=      5-min Rain = 0
KME1 122030Z 00006KT 34/13 A2993 RMK A01 T03350125  RH  028%=      5-min Rain = 0
KME1 122031Z 35009KT 34/13 A2993 RMK A01 T03370126  RH  028%=      5-min Rain = 0
KME1 122032Z 01007KT 34/12 A2993 RMK A01 T03370122  RH  027%=      5-min Rain = 0
KME1 122033Z 02006KT 33/12 A2993 RMK A01 T03340119  RH  027%=      5-min Rain = 0
KME1 122034Z 03005KT 33/12 A2993 RMK A01 T03330120  RH  027%=      5-min Rain = 0
KME1 122035Z 12003KT 33/12 A2993 RMK A01 T03320119  RH  027%=      5-min Rain = 0
KME1 122036Z 08002KT 33/12 A2993 RMK A01 T03320118  RH  027%=      5-min Rain = 0
KME1 122037Z 03007KT 33/12 A2993 RMK A01 T03330124  RH  028%=      5-min Rain = 0
KME1 122038Z 04009KT 34/13 A2992 RMK A01 T03350125  RH  028%=      5-min Rain = 0
KME1 122039Z 03009KT 34/13 A2992 RMK A01 T03380125  RH  028%=      5-min Rain = 0
KME1 122040Z 03004KT 34/13 A2992 RMK A01 T03400127  RH  028%=      5-min Rain = 0
KME1 122041Z 06007KT 34/12 A2992 RMK A01 T03420124  RH  027%=      5-min Rain = 0
KME1 122042Z 06005KT 34/12 A2992 RMK A01 T03390118  RH  026%=      5-min Rain = 0
KME1 122043Z 06003KT 34/12 A2992 RMK A01 T03360121  RH  027%=      5-min Rain = 0
KME1 122044Z 09003KT 34/13 A2992 RMK A01 T03360125  RH  028%=      5-min Rain = 0
KME1 122045Z 04004KT 34/12 A2992 RMK A01 T03370120  RH  027%=      5-min Rain = 0
KME1 122046Z 07007KT 34/13 A2992 RMK A01 T03370125  RH  028%=      5-min Rain = 0
KME1 122047Z 08005KT 34/12 A2992 RMK A01 T03360120  RH  027%=      5-min Rain = 0
KME1 122048Z 09004KT 33/12 A2992 RMK A01 T03330122  RH  028%=      5-min Rain = 0
KME1 122049Z 04003KT 33/12 A2992 RMK A01 T03330122  RH  028%=      5-min Rain = 0
KME1 122050Z 35005KT 33/12 A2992 RMK A01 T03330121  RH  028%=      5-min Rain = 0
KME1 122051Z 36006KT 33/12 A2992 RMK A01 T03340118  RH  027%=      5-min Rain = 0
KME1 122052Z 34006KT 33/12 A2992 RMK A01 T03340120  RH  027%=      5-min Rain = 0
KME1 122053Z 34008KT 34/12 A2992 RMK A01 T03350123  RH  028%=      5-min Rain = 0
KME1 122054Z 35006KT 34/12 A2992 RMK A01 T03360123  RH  027%=      5-min Rain = 0
KME1 122055Z 33006KT 34/12 A2992 RMK A01 T03360123  RH  027%=      5-min Rain = 0
KME1 122056Z 34004KT 34/12 A2991 RMK A01 T03360121  RH  027%=      5-min Rain = 0
KME1 122057Z 02002KT 34/12 A2991 RMK A01 T03360119  RH  027%=      5-min Rain = 0
KME1 122058Z 03006G11KT 33/12 A2991 RMK A01 T03340117  RH  027%=      5-min Rain = 0
KME1 122059Z 02009KT 34/12 A2991 RMK A01 T03350122  RH  027%=      5-min Rain = 0
KME1 122100Z 03008KT 34/12 A2991 RMK A01 T03360121  RH  027%=      5-min Rain = 0
KME1 122101Z 03006KT 34/12 A2991 RMK A01 T03360119  RH  027%=      5-min Rain = 0
KME1 122102Z 01004KT 34/12 A2991 RMK A01 T03350118  RH  027%=      5-min Rain = 0
KME1 122103Z 02004KT 33/12 A2991 RMK A01 T03340120  RH  027%=      5-min Rain = 0
KME1 122104Z 03007KT 33/12 A2991 RMK A01 T03340123  RH  028%=      5-min Rain = 0
KME1 122105Z 06006KT 34/12 A2991 RMK A01 T03360124  RH  028%=      5-min Rain = 0
KME1 122106Z 04005KT 34/12 A2991 RMK A01 T03380121  RH  027%=      5-min Rain = 0
KME1 122107Z 05002KT 34/11 A2991 RMK A01 T03350113  RH  026%=      5-min Rain = 0
KME1 122108Z 06007KT 33/12 A2991 RMK A01 T03340122  RH  028%=      5-min Rain = 0
KME1 122109Z 06006KT 34/12 A2991 RMK A01 T03360120  RH  027%=      5-min Rain = 0
KME1 122110Z 06004KT 33/12 A2991 RMK A01 T03340116  RH  027%=      5-min Rain = 0
KME1 122111Z 05004KT 33/12 A2991 RMK A01 T03330122  RH  028%=      5-min Rain = 0
KME1 122112Z 06005KT 33/12 A2991 RMK A01 T03340121  RH  027%=      5-min Rain = 0
KME1 122113Z 08006KT 34/12 A2991 RMK A01 T03350122  RH  027%=      5-min Rain = 0
KME1 122114Z 07004KT 33/12 A2991 RMK A01 T03340118  RH  027%=      5-min Rain = 0
KME1 122115Z 01006KT 33/12 A2991 RMK A01 T03330120  RH  027%=      5-min Rain = 0
KME1 122116Z 03005KT 33/12 A2991 RMK A01 T03340118  RH  027%=      5-min Rain = 0
KME1 122117Z 34002KT 33/12 A2991 RMK A01 T03340116  RH  026%=      5-min Rain = 0
KME1 122118Z 04004KT 33/12 A2991 RMK A01 T03340115  RH  026%=      5-min Rain = 0
KME1 122119Z 02004KT 33/12 A2991 RMK A01 T03340119  RH  027%=      5-min Rain = 0
KME1 122120Z 05007KT 34/13 A2991 RMK A01 T03360125  RH  028%=      5-min Rain = 0
KME1 122121Z 07007KT 34/12 A2991 RMK A01 T03390124  RH  027%=      5-min Rain = 0
KME1 122122Z 06010KT 34/12 A2991 RMK A01 T03390122  RH  027%=      5-min Rain = 0
KME1 122123Z 05010KT 34/12 A299 RMK A01 T03380123  RH  027%=      5-min Rain = 0
KME1 122124Z 33008G15KT 34/13 A299 RMK A01 T03390125  RH  027%=      5-min Rain = 0
KME1 122125Z 34005KT 34/13 A2991 RMK A01 T03410125  RH  027%=      5-min Rain = 0
KME1 122126Z 31006KT 34/13 A299 RMK A01 T03420126  RH  027%=      5-min Rain = 0
KME1 122127Z 31007KT 34/12 A299 RMK A01 T03430124  RH  027%=      5-min Rain = 0
KME1 122128Z 31006KT 34/13 A299 RMK A01 T03420125  RH  027%=      5-min Rain = 0
KME1 122129Z 30006KT 34/12 A299 RMK A01 T03420122  RH  026%=      5-min Rain = 0
KME1 122130Z 33004KT 34/12 A299 RMK A01 T03420121  RH  026%=      5-min Rain = 0
KME1 122131Z 33003KT 34/12 A299 RMK A01 T03400119  RH  026%=      5-min Rain = 0
KME1 122132Z 32003KT 34/12 A299 RMK A01 T03400122  RH  027%=      5-min Rain = 0
KME1 122133Z 33002KT 34/12 A299 RMK A01 T03400118  RH  026%=      5-min Rain = 0
KME1 122134Z 01007KT 34/12 A299 RMK A01 T03400119  RH  026%=      5-min Rain = 0
KME1 122135Z 36005KT 34/12 A299 RMK A01 T03390120  RH  026%=      5-min Rain = 0
KME1 122136Z 00007KT 34/12 A299 RMK A01 T03380121  RH  027%=      5-min Rain = 0
KME1 122137Z 35007KT 34/12 A299 RMK A01 T03380122  RH  027%=      5-min Rain = 0
KME1 122138Z 00009KT 34/12 A299 RMK A01 T03380120  RH  027%=      5-min Rain = 0
KME1 122139Z 01006KT 34/12 A299 RMK A01 T03370120  RH  027%=      5-min Rain = 0
KME1 122140Z 35007KT 34/12 A299 RMK A01 T03370122  RH  027%=      5-min Rain = 0
KME1 122141Z 00005KT 34/12 A299 RMK A01 T03370121  RH  027%=      5-min Rain = 0
KME1 122142Z 33003KT 34/12 A299 RMK A01 T03380120  RH  027%=      5-min Rain = 0
KME1 122143Z 28004KT 34/12 A299 RMK A01 T03380121  RH  027%=      5-min Rain = 0
KME1 122144Z 32002KT 34/12 A299 RMK A01 T03390120  RH  027%=      5-min Rain = 0
KME1 122145Z 35005KT 34/12 A299 RMK A01 T03400122  RH  027%=      5-min Rain = 0
KME1 122146Z 02007KT 34/13 A299 RMK A01 T03400126  RH  027%=      5-min Rain = 0
KME1 122147Z 02008KT 34/13 A299 RMK A01 T03410125  RH  027%=      5-min Rain = 0
KME1 122148Z 01007KT 34/12 A299 RMK A01 T03400121  RH  026%=      5-min Rain = 0
KME1 122149Z 35008KT 34/12 A299 RMK A01 T03370119  RH  026%=      5-min Rain = 0
KME1 122150Z 33005KT 34/12 A299 RMK A01 T03350119  RH  027%=      5-min Rain = 0
KME1 122151Z 32004KT 33/12 A299 RMK A01 T03340120  RH  027%=      5-min Rain = 0
KME1 122152Z 31003KT 33/12 A299 RMK A01 T03340117  RH  027%=      5-min Rain = 0
KME1 122153Z 32005KT 33/12 A299 RMK A01 T03340119  RH  027%=      5-min Rain = 0
KME1 122154Z 33005KT 34/12 A299 RMK A01 T03350120  RH  027%=      5-min Rain = 0
KME1 122155Z 35008KT 34/13 A299 RMK A01 T03370125  RH  028%=      5-min Rain = 0
KME1 122156Z 01008KT 34/12 A299 RMK A01 T03380123  RH  027%=      5-min Rain = 0
KME1 122157Z 01009KT 34/12 A299 RMK A01 T03380124  RH  027%=      5-min Rain = 0
KME1 122158Z 36006KT 34/12 A299 RMK A01 T03370122  RH  027%=      5-min Rain = 0
KME1 122159Z 04006KT 34/12 A299 RMK A01 T03370123  RH  027%=      5-min Rain = 0
KME1 122200Z 07006KT 34/12 A299 RMK A01 T03360123  RH  027%=      5-min Rain = 0
KME1 122201Z 06003KT 34/12 A299 RMK A01 T03370121  RH  027%=      5-min Rain = 0
KME1 122202Z 05000KT 34/12 A299 RMK A01 T03360116  RH  026%=      5-min Rain = 0
KME1 122203Z 01001KT 34/12 A299 RMK A01 T03350118  RH  027%=      5-min Rain = 0
KME1 122204Z 10004KT 34/12 A299 RMK A01 T03370124  RH  028%=      5-min Rain = 0
KME1 122205Z 11006KT 34/12 A299 RMK A01 T03370119  RH  027%=      5-min Rain = 0
KME1 122206Z 11004KT 34/12 A2989 RMK A01 T03350119  RH  027%=      5-min Rain = 0
KME1 122207Z 07004KT 33/12 A299 RMK A01 T03340120  RH  027%=      5-min Rain = 0
KME1 122208Z 03003KT 33/12 A299 RMK A01 T03340120  RH  027%=      5-min Rain = 0
KME1 122209Z 04003KT 33/12 A299 RMK A01 T03340115  RH  026%=      5-min Rain = 0
KME1 122210Z 03003KT 34/12 A299 RMK A01 T03350120  RH  027%=      5-min Rain = 0
KME1 122211Z 02006KT 34/12 A2989 RMK A01 T03360121  RH  027%=      5-min Rain = 0
KME1 122212Z 04010KT 34/12 A2989 RMK A01 T03360120  RH  027%=      5-min Rain = 0
KME1 122213Z 02011KT 34/12 A2989 RMK A01 T03370120  RH  027%=      5-min Rain = 0
KME1 122214Z 01006KT 34/12 A2989 RMK A01 T03360119  RH  027%=      5-min Rain = 0
KME1 122215Z 02005KT 34/12 A2989 RMK A01 T03350115  RH  026%=      5-min Rain = 0
KME1 122216Z 01007KT 34/12 A2989 RMK A01 T03350121  RH  027%=      5-min Rain = 0
KME1 122217Z 01004KT 34/12 A2989 RMK A01 T03350115  RH  026%=      5-min Rain = 0
KME1 122218Z 02009KT 33/12 A2989 RMK A01 T03340118  RH  027%=      5-min Rain = 0
KME1 122219Z 04008KT 33/12 A2989 RMK A01 T03340118  RH  027%=      5-min Rain = 0
KME1 122220Z 04007KT 34/12 A2989 RMK A01 T03350120  RH  027%=      5-min Rain = 0
KME1 122221Z 02005KT 34/12 A2989 RMK A01 T03360120  RH  027%=      5-min Rain = 0
KME1 122222Z 35008KT 34/12 A2989 RMK A01 T03370122  RH  027%=      5-min Rain = 0
KME1 122223Z 35006KT 34/12 A2989 RMK A01 T03370122  RH  027%=      5-min Rain = 0
KME1 122224Z 35006KT 34/12 A2989 RMK A01 T03370123  RH  027%=      5-min Rain = 0
KME1 122225Z 00004KT 34/12 A2989 RMK A01 T03380120  RH  027%=      5-min Rain = 0
KME1 122226Z 36006KT 34/12 A2989 RMK A01 T03370119  RH  027%=      5-min Rain = 0
KME1 122227Z 01008KT 34/12 A2989 RMK A01 T03370124  RH  027%=      5-min Rain = 0
KME1 122228Z 01009KT 34/12 A2989 RMK A01 T03370122  RH  027%=      5-min Rain = 0
KME1 122229Z 01008KT 34/12 A2989 RMK A01 T03370119  RH  027%=      5-min Rain = 0
KME1 122230Z 01011KT 34/12 A2989 RMK A01 T03360120  RH  027%=      5-min Rain = 0
KME1 122231Z 01011KT 34/12 A2989 RMK A01 T03350118  RH  027%=      5-min Rain = 0
KME1 122232Z 01009KT 33/12 A2989 RMK A01 T03340119  RH  027%=      5-min Rain = 0
KME1 122233Z 02007KT 33/12 A2989 RMK A01 T03330117  RH  027%=      5-min Rain = 0
KME1 122234Z 02005KT 33/12 A2989 RMK A01 T03330121  RH  028%=      5-min Rain = 0
KME1 122235Z 05006KT 33/12 A2989 RMK A01 T03340122  RH  028%=      5-min Rain = 0
KME1 122236Z 04006KT 34/12 A2989 RMK A01 T03350118  RH  027%=      5-min Rain = 0
KME1 122237Z 06005KT 34/12 A2989 RMK A01 T03350120  RH  027%=      5-min Rain = 0
KME1 122238Z 05005KT 34/12 A2989 RMK A01 T03350115  RH  026%=      5-min Rain = 0
KME1 122239Z 04003KT 33/12 A2989 RMK A01 T03340121  RH  027%=      5-min Rain = 0
KME1 122240Z 03004KT 33/12 A2989 RMK A01 T03340117  RH  027%=      5-min Rain = 0
KME1 122241Z 03003KT 33/12 A2989 RMK A01 T03340117  RH  027%=      5-min Rain = 0
KME1 122242Z 02005KT 34/12 A2989 RMK A01 T03350119  RH  027%=      5-min Rain = 0
KME1 122243Z 00004KT 34/12 A2989 RMK A01 T03360122  RH  027%=      5-min Rain = 0
KME1 122244Z 02004KT 34/12 A2989 RMK A01 T03360123  RH  027%=      5-min Rain = 0
KME1 122245Z 03004KT 34/12 A2989 RMK A01 T03370120  RH  027%=      5-min Rain = 0
KME1 122246Z 02004KT 34/12 A2989 RMK A01 T03370123  RH  027%=      5-min Rain = 0
KME1 122247Z 36005KT 34/12 A2989 RMK A01 T03370122  RH  027%=      5-min Rain = 0
KME1 122248Z 01008KT 34/12 A2989 RMK A01 T03370122  RH  027%=      5-min Rain = 0
KME1 122249Z 02007KT 34/12 A2989 RMK A01 T03360121  RH  027%=      5-min Rain = 0
KME1 122250Z 01006KT 34/12 A2989 RMK A01 T03350119  RH  027%=      5-min Rain = 0
KME1 122251Z 03005KT 33/12 A2989 RMK A01 T03340118  RH  027%=      5-min Rain = 0
KME1 122252Z 36006KT 33/12 A2989 RMK A01 T03330120  RH  027%=      5-min Rain = 0
KME1 122253Z 01005KT 33/12 A2989 RMK A01 T03330117  RH  027%=      5-min Rain = 0
KME1 122254Z 36002KT 33/12 A2989 RMK A01 T03320118  RH  027%=      5-min Rain = 0
KME1 122255Z 35002KT 33/12 A2989 RMK A01 T03320124  RH  028%=      5-min Rain = 0
KME1 122256Z 01001KT 33/12 A2989 RMK A01 T03340118  RH  027%=      5-min Rain = 0
KME1 122257Z 00000KT 34/12 A2989 RMK A01 T03350117  RH  027%=      5-min Rain = 0
KME1 122258Z 02001KT 34/12 A2989 RMK A01 T03360120  RH  027%=      5-min Rain = 0
KME1 122259Z 03001KT 34/12 A2989 RMK A01 T03370116  RH  026%=      5-min Rain = 0
KME1 122300Z 10003KT 34/12 A2989 RMK A01 T03370121  RH  027%=      5-min Rain = 0
KME1 122301Z 08006KT 34/12 A2989 RMK A01 T03370119  RH  027%=      5-min Rain = 0
KME1 122302Z 06005KT 33/12 A2989 RMK A01 T03340121  RH  027%=      5-min Rain = 0
KME1 122303Z 08004KT 33/12 A2989 RMK A01 T03330121  RH  028%=      5-min Rain = 0
KME1 122304Z 08003KT 33/12 A2988 RMK A01 T03320123  RH  028%=      5-min Rain = 0
KME1 122305Z 05003KT 33/13 A2988 RMK A01 T03320125  RH  028%=      5-min Rain = 0
KME1 122306Z 03003KT 33/12 A2989 RMK A01 T03330124  RH  028%=      5-min Rain = 0
KME1 122307Z 02005KT 33/12 A2989 RMK A01 T03340124  RH  028%=      5-min Rain = 0
KME1 122308Z 03009KT 33/12 A2989 RMK A01 T03340122  RH  027%=      5-min Rain = 0
KME1 122309Z 03007KT 33/12 A2989 RMK A01 T03340119  RH  027%=      5-min Rain = 0
KME1 122310Z 04004KT 33/12 A2989 RMK A01 T03330121  RH  028%=      5-min Rain = 0
KME1 122311Z 04004KT 33/12 A2988 RMK A01 T03330123  RH  028%=      5-min Rain = 0
KME1 122312Z 02003KT 33/12 A2988 RMK A01 T03330123  RH  028%=      5-min Rain = 0
KME1 122313Z 36005KT 33/12 A2988 RMK A01 T03340124  RH  028%=      5-min Rain = 0
KME1 122314Z 00008KT 33/12 A2988 RMK A01 T03340124  RH  028%=      5-min Rain = 0
KME1 122315Z 00006KT 33/12 A2988 RMK A01 T03330118  RH  027%=      5-min Rain = 0
KME1 122316Z 35005KT 33/12 A2988 RMK A01 T03320123  RH  028%=      5-min Rain = 0
KME1 122317Z 34006KT 33/12 A2988 RMK A01 T03320122  RH  028%=      5-min Rain = 0
KME1 122318Z 33005KT 33/12 A2988 RMK A01 T03310122  RH  028%=      5-min Rain = 0
KME1 122319Z 32005KT 33/12 A2988 RMK A01 T03310124  RH  028%=      5-min Rain = 0
KME1 122320Z 35005KT 33/12 A2988 RMK A01 T03310123  RH  028%=      5-min Rain = 0
KME1 122321Z 02005KT 33/12 A2988 RMK A01 T03320123  RH  028%=      5-min Rain = 0
KME1 122322Z 05008KT 33/12 A2988 RMK A01 T03310123  RH  028%=      5-min Rain = 0
KME1 122323Z 04007KT 33/12 A2988 RMK A01 T03310122  RH  028%=      5-min Rain = 0
KME1 122324Z 03006KT 33/12 A2988 RMK A01 T03300121  RH  028%=      5-min Rain = 0
KME1 122325Z 04005KT 33/12 A2988 RMK A01 T03300121  RH  028%=      5-min Rain = 0
KME1 122326Z 04006KT 33/12 A2988 RMK A01 T03300124  RH  029%=      5-min Rain = 0
KME1 122327Z 03005KT 33/12 A2988 RMK A01 T03290124  RH  029%=      5-min Rain = 0
KME1 122328Z 02007KT 33/13 A2988 RMK A01 T03290125  RH  029%=      5-min Rain = 0
KME1 122329Z 04008KT 33/12 A2988 RMK A01 T03290123  RH  029%=      5-min Rain = 0
KME1 122330Z 03008KT 33/12 A2988 RMK A01 T03280122  RH  028%=      5-min Rain = 0
KME1 122331Z 03009KT 33/12 A2988 RMK A01 T03280122  RH  029%=      5-min Rain = 0
KME1 122332Z 04007KT 33/12 A2988 RMK A01 T03270122  RH  029%=      5-min Rain = 0
KME1 122333Z 04008KT 33/12 A2988 RMK A01 T03260124  RH  029%=      5-min Rain = 0
KME1 122334Z 03007KT 33/12 A2988 RMK A01 T03260124  RH  029%=      5-min Rain = 0
KME1 122335Z 04008KT 33/12 A2988 RMK A01 T03260123  RH  029%=      5-min Rain = 0
KME1 122336Z 04006KT 33/12 A2988 RMK A01 T03250123  RH  029%=      5-min Rain = 0
KME1 122337Z 03006KT 33/12 A2988 RMK A01 T03250124  RH  029%=      5-min Rain = 0
KME1 122338Z 04006KT 33/12 A2988 RMK A01 T03250124  RH  029%=      5-min Rain = 0
KME1 122339Z 05005KT 33/12 A2988 RMK A01 T03250124  RH  029%=      5-min Rain = 0
KME1 122340Z 05007KT 33/13 A2988 RMK A01 T03250125  RH  030%=      5-min Rain = 0
KME1 122341Z 06006KT 33/12 A2988 RMK A01 T03250124  RH  029%=      5-min Rain = 0
KME1 122342Z 04007KT 32/12 A2988 RMK A01 T03240123  RH  029%=      5-min Rain = 0
KME1 122343Z 04006KT 32/12 A2988 RMK A01 T03240122  RH  029%=      5-min Rain = 0
KME1 122344Z 03005KT 32/12 A2988 RMK A01 T03240122  RH  029%=      5-min Rain = 0
KME1 122345Z 05006KT 32/12 A2988 RMK A01 T03240123  RH  029%=      5-min Rain = 0
KME1 122346Z 06005KT 32/13 A2988 RMK A01 T03240125  RH  030%=      5-min Rain = 0
KME1 122347Z 06005KT 32/12 A2988 RMK A01 T03230124  RH  030%=      5-min Rain = 0
KME1 122348Z 05005KT 32/13 A2988 RMK A01 T03240125  RH  030%=      5-min Rain = 0
KME1 122349Z 06005KT 32/13 A2988 RMK A01 T03230125  RH  030%=      5-min Rain = 0
KME1 122350Z 05006KT 32/12 A2988 RMK A01 T03230124  RH  030%=      5-min Rain = 0
KME1 122351Z 06005KT 32/12 A2988 RMK A01 T03220122  RH  030%=      5-min Rain = 0
KME1 122352Z 05005KT 32/13 A2988 RMK A01 T03220125  RH  030%=      5-min Rain = 0
KME1 122353Z 05005KT 32/12 A2988 RMK A01 T03210123  RH  030%=      5-min Rain = 0
KME1 122354Z 06004KT 32/13 A2988 RMK A01 T03210125  RH  030%=      5-min Rain = 0
KME1 122355Z 06006KT 32/13 A2988 RMK A01 T03210125  RH  030%=      5-min Rain = 0
KME1 122356Z 06006KT 32/12 A2988 RMK A01 T03200124  RH  030%=      5-min Rain = 0
KME1 122357Z 06007KT 32/12 A2988 RMK A01 T03200123  RH  030%=      5-min Rain = 0
KME1 122358Z 06007KT 32/12 A2988 RMK A01 T03190123  RH  030%=      5-min Rain = 0
KME1 122359Z 07005KT 32/13 A2988 RMK A01 T03180125  RH  031%=      5-min Rain = 0
KME1 130000Z 07005KT 32/13 A2988 RMK A01 T03170126  RH  031%=      5-min Rain = 0
KME1 130001Z 07004KT 32/13 A2988 RMK A01 T03170127  RH  031%=      5-min Rain = 0
KME1 130002Z 07004KT 32/13 A2988 RMK A01 T03160129  RH  032%=      5-min Rain = 0
KME1 130003Z 07005KT 32/13 A2988 RMK A01 T03150126  RH  031%=      5-min Rain = 0
KME1 130004Z 07004KT 32/13 A2988 RMK A01 T03150127  RH  032%=      5-min Rain = 0
KME1 130005Z 07005KT 32/13 A2988 RMK A01 T03150128  RH  032%=      5-min Rain = 0
KME1 130006Z 06004KT 31/13 A2988 RMK A01 T03140129  RH  032%=      5-min Rain = 0
KME1 130007Z 07004KT 31/13 A2988 RMK A01 T03130130  RH  033%=      5-min Rain = 0
KME1 130008Z 07004KT 31/13 A2988 RMK A01 T03130130  RH  033%=      5-min Rain = 0
KME1 130009Z 07005KT 31/13 A2988 RMK A01 T03120127  RH  032%=      5-min Rain = 0
KME1 130010Z 07004KT 31/13 A2988 RMK A01 T03120127  RH  032%=      5-min Rain = 0
KME1 130011Z 07004KT 31/13 A2988 RMK A01 T03110126  RH  032%=      5-min Rain = 0
KME1 130012Z 07004KT 31/13 A2988 RMK A01 T03110127  RH  032%=      5-min Rain = 0
KME1 130013Z 07004KT 31/13 A2988 RMK A01 T03110127  RH  032%=      5-min Rain = 0
KME1 130014Z 06004KT 31/13 A2988 RMK A01 T03100127  RH  033%=      5-min Rain = 0
KME1 130015Z 07004KT 31/13 A2988 RMK A01 T03100126  RH  033%=      5-min Rain = 0
KME1 130016Z 07005KT 31/13 A2988 RMK A01 T03090126  RH  033%=      5-min Rain = 0
KME1 130017Z 06005KT 31/13 A2988 RMK A01 T03090126  RH  033%=      5-min Rain = 0
KME1 130018Z 07004KT 31/13 A2988 RMK A01 T03080126  RH  033%=      5-min Rain = 0
KME1 130019Z 07004KT 31/13 A2988 RMK A01 T03080128  RH  033%=      5-min Rain = 0
KME1 130020Z 07004KT 31/13 A2988 RMK A01 T03070127  RH  033%=      5-min Rain = 0
KME1 130021Z 07005KT 31/13 A2988 RMK A01 T03060127  RH  033%=      5-min Rain = 0
KME1 130022Z 06004KT 31/13 A2988 RMK A01 T03050127  RH  033%=      5-min Rain = 0
KME1 130023Z 07004KT 31/13 A2988 RMK A01 T03050125  RH  033%=      5-min Rain = 0
KME1 130024Z 07004KT 31/13 A2988 RMK A01 T03050125  RH  033%=      5-min Rain = 0
KME1 130025Z 07004KT 31/13 A2988 RMK A01 T03050125  RH  033%=      5-min Rain = 0
KME1 130026Z 07004KT 30/13 A2988 RMK A01 T03040125  RH  033%=      5-min Rain = 0
KME1 130027Z 06004KT 30/13 A2988 RMK A01 T03040126  RH  034%=      5-min Rain = 0
KME1 130028Z 07004KT 30/13 A2988 RMK A01 T03020125  RH  034%=      5-min Rain = 0
KME1 130029Z 06004KT 30/13 A2988 RMK A01 T03020126  RH  034%=      5-min Rain = 0
KME1 130030Z 06004KT 30/13 A2988 RMK A01 T03010127  RH  034%=      5-min Rain = 0
KME1 130031Z 07004KT 30/13 A2988 RMK A01 T03000126  RH  034%=      5-min Rain = 0
KME1 130032Z 06004KT 30/13 A2988 RMK A01 T02990126  RH  034%=      5-min Rain = 0
KME1 130033Z 06004KT 30/13 A2988 RMK A01 T02990126  RH  035%=      5-min Rain = 0
KME1 130034Z 06004KT 30/13 A2988 RMK A01 T02980126  RH  035%=      5-min Rain = 0
KME1 130035Z 06004KT 30/13 A2988 RMK A01 T02970126  RH  035%=      5-min Rain = 0
KME1 130036Z 06004KT 30/13 A2988 RMK A01 T02960126  RH  035%=      5-min Rain = 0
KME1 130037Z 06004KT 30/13 A2988 RMK A01 T02950126  RH  035%=      5-min Rain = 0
KME1 130038Z 06004KT 30/13 A2988 RMK A01 T02950126  RH  035%=      5-min Rain = 0
KME1 130039Z 06004KT 29/13 A2988 RMK A01 T02940126  RH  036%=      5-min Rain = 0
KME1 130040Z 06004KT 29/13 A2988 RMK A01 T02930125  RH  035%=      5-min Rain = 0
KME1 130041Z 06004KT 29/13 A2988 RMK A01 T02930126  RH  036%=      5-min Rain = 0
KME1 130042Z 06004KT 29/13 A2988 RMK A01 T02920126  RH  036%=      5-min Rain = 0
KME1 130043Z 06004KT 29/13 A2988 RMK A01 T02910127  RH  036%=      5-min Rain = 0
KME1 130044Z 06004KT 29/13 A2988 RMK A01 T02900126  RH  037%=      5-min Rain = 0
KME1 130045Z 06004KT 29/13 A2988 RMK A01 T02890125  RH  036%=      5-min Rain = 0
KME1 130046Z 05004KT 29/13 A2988 RMK A01 T02880125  RH  037%=      5-min Rain = 0
KME1 130047Z 06004KT 29/13 A2988 RMK A01 T02870125  RH  037%=      5-min Rain = 0
KME1 130048Z 06004KT 29/13 A2988 RMK A01 T02870125  RH  037%=      5-min Rain = 0
KME1 130049Z 06004KT 29/13 A2988 RMK A01 T02860125  RH  037%=      5-min Rain = 0
KME1 130050Z 06004KT 29/13 A2988 RMK A01 T02850125  RH  037%=      5-min Rain = 0
KME1 130051Z 06004KT 29/13 A2988 RMK A01 T02850125  RH  037%=      5-min Rain = 0
KME1 130052Z 06003KT 28/13 A2988 RMK A01 T02840126  RH  038%=      5-min Rain = 0
KME1 130053Z 06003KT 28/13 A2988 RMK A01 T02830126  RH  038%=      5-min Rain = 0
KME1 130054Z 07003KT 28/13 A2988 RMK A01 T02820127  RH  038%=      5-min Rain = 0
KME1 130055Z 07002KT 28/13 A2988 RMK A01 T02810126  RH  038%=      5-min Rain = 0
KME1 130056Z 08002KT 28/12 A2988 RMK A01 T02800124  RH  038%=      5-min Rain = 0
KME1 130057Z 08002KT 28/13 A2988 RMK A01 T02790125  RH  038%=      5-min Rain = 0
KME1 130058Z 08002KT 28/13 A2988 RMK A01 T02790125  RH  038%=      5-min Rain = 0
KME1 130059Z 08002KT 28/13 A2988 RMK A01 T02780126  RH  039%=      5-min Rain = 0
KME1 130100Z 08002KT 28/13 A2988 RMK A01 T02770127  RH  039%=      5-min Rain = 0
KME1 130101Z 09002KT 28/13 A2988 RMK A01 T02770128  RH  040%=      5-min Rain = 0
KME1 130102Z 09002KT 28/13 A2988 RMK A01 T02750128  RH  040%=      5-min Rain = 0
KME1 130103Z 11002KT 27/13 A2988 RMK A01 T02740129  RH  041%=      5-min Rain = 0
KME1 130104Z 11002KT 27/13 A2988 RMK A01 T02730132  RH  042%=      5-min Rain = 0
KME1 130105Z 11002KT 27/13 A2988 RMK A01 T02710131  RH  042%=      5-min Rain = 0
KME1 130106Z 11002KT 27/13 A2988 RMK A01 T02700129  RH  042%=      5-min Rain = 0
KME1 130107Z 11002KT 27/13 A2988 RMK A01 T02690130  RH  042%=      5-min Rain = 0
KME1 130108Z 11002KT 27/13 A2988 RMK A01 T02670132  RH  043%=      5-min Rain = 0
KME1 130109Z 11002KT 27/13 A2988 RMK A01 T02650134  RH  044%=      5-min Rain = 0
KME1 130110Z 11002KT 26/14 A2988 RMK A01 T02630135  RH  045%=      5-min Rain = 0
KME1 130111Z 11002KT 26/13 A2988 RMK A01 T02610134  RH  046%=      5-min Rain = 0
KME1 130112Z 11002KT 26/13 A2988 RMK A01 T02600133  RH  045%=      5-min Rain = 0
KME1 130113Z 10002KT 26/13 A2988 RMK A01 T02590133  RH  046%=      5-min Rain = 0
KME1 130114Z 10002KT 26/14 A2988 RMK A01 T02580136  RH  047%=      5-min Rain = 0
KME1 130115Z 10003KT 26/14 A2988 RMK A01 T02580140  RH  048%=      5-min Rain = 0
KME1 130116Z 10003KT 26/14 A2988 RMK A01 T02570138  RH  048%=      5-min Rain = 0
KME1 130117Z 10003KT 26/14 A2988 RMK A01 T02560142  RH  049%=      5-min Rain = 0
KME1 130118Z 10002KT 26/15 A2988 RMK A01 T02550149  RH  052%=      5-min Rain = 0
KME1 130119Z 11002KT 25/15 A2988 RMK A01 T02540146  RH  051%=      5-min Rain = 0
KME1 130120Z 10002KT 25/14 A2988 RMK A01 T02540142  RH  050%=      5-min Rain = 0
KME1 130121Z 11002KT 25/13 A2988 RMK A01 T02530134  RH  048%=      5-min Rain = 0
KME1 130122Z 11002KT 25/14 A2988 RMK A01 T02530135  RH  048%=      5-min Rain = 0
KME1 130123Z 11002KT 25/13 A2988 RMK A01 T02540133  RH  047%=      5-min Rain = 0
KME1 130124Z 11002KT 25/13 A2988 RMK A01 T02540132  RH  047%=      5-min Rain = 0
KME1 130125Z 10002KT 25/13 A2988 RMK A01 T02540129  RH  046%=      5-min Rain = 0
KME1 130126Z 11002KT 26/13 A2988 RMK A01 T02550129  RH  046%=      5-min Rain = 0
KME1 130127Z 11002KT 26/13 A2988 RMK A01 T02550130  RH  046%=      5-min Rain = 0
KME1 130128Z 10002KT 26/13 A2988 RMK A01 T02560134  RH  047%=      5-min Rain = 0
KME1 130129Z 10002KT 26/13 A2988 RMK A01 T02560132  RH  046%=      5-min Rain = 0
KME1 130130Z 10002KT 26/13 A2988 RMK A01 T02560130  RH  045%=      5-min Rain = 0
KME1 130131Z 10002KT 26/13 A2988 RMK A01 T02560133  RH  047%=      5-min Rain = 0
KME1 130132Z 10002KT 26/14 A2988 RMK A01 T02550135  RH  047%=      5-min Rain = 0
KME1 130133Z 09002KT 25/13 A2988 RMK A01 T02530130  RH  046%=      5-min Rain = 0
KME1 130134Z 09002KT 25/13 A2988 RMK A01 T02530132  RH  047%=      5-min Rain = 0
KME1 130135Z 08001KT 25/13 A2988 RMK A01 T02520131  RH  047%=      5-min Rain = 0
KME1 130136Z 08002KT 25/13 A2988 RMK A01 T02510129  RH  047%=      5-min Rain = 0
KME1 130137Z 08002KT 25/13 A2988 RMK A01 T02510127  RH  046%=      5-min Rain = 0
KME1 130138Z 07001KT 25/13 A2988 RMK A01 T02510130  RH  047%=      5-min Rain = 0
KME1 130139Z 08001KT 25/13 A2988 RMK A01 T02500128  RH  047%=      5-min Rain = 0
KME1 130140Z 07001KT 25/13 A2988 RMK A01 T02490134  RH  049%=      5-min Rain = 0
KME1 130141Z 08002KT 25/14 A2988 RMK A01 T02470135  RH  050%=      5-min Rain = 0
KME1 130142Z 07001KT 25/14 A2988 RMK A01 T02450135  RH  050%=      5-min Rain = 0
KME1 130143Z 08001KT 24/14 A2988 RMK A01 T02440136  RH  051%=      5-min Rain = 0
KME1 130144Z 08001KT 24/14 A2988 RMK A01 T02420139  RH  052%=      5-min Rain = 0
KME1 130145Z 08001KT 24/14 A2988 RMK A01 T02410144  RH  055%=      5-min Rain = 0
KME1 130146Z 08000KT 24/14 A2988 RMK A01 T02400142  RH  054%=      5-min Rain = 0
KME1 130147Z 00000KT 24/14 A2988 RMK A01 T02390141  RH  054%=      5-min Rain = 0
KME1 130148Z 00000KT 24/14 A2988 RMK A01 T02380135  RH  052%=      5-min Rain = 0
KME1 130149Z 00000KT 24/13 A2988 RMK A01 T02370134  RH  052%=      5-min Rain = 0
KME1 130150Z 17001KT 24/13 A2988 RMK A01 T02360132  RH  052%=      5-min Rain = 0
KME1 130151Z 18002KT 24/13 A2988 RMK A01 T02360132  RH  052%=      5-min Rain = 0
KME1 130152Z 21003KT 24/13 A2988 RMK A01 T02350131  RH  052%=      5-min Rain = 0
KME1 130153Z 21003KT 23/13 A2988 RMK A01 T02340132  RH  053%=      5-min Rain = 0
KME1 130154Z 22003KT 23/13 A2988 RMK A01 T02330130  RH  052%=      5-min Rain = 0
KME1 130155Z 21003KT 23/13 A2988 RMK A01 T02320129  RH  052%=      5-min Rain = 0
KME1 130156Z 22003KT 23/13 A2988 RMK A01 T02330126  RH  051%=      5-min Rain = 0
KME1 130157Z 23003KT 23/13 A2988 RMK A01 T02340128  RH  051%=      5-min Rain = 0
KME1 130158Z 22003KT 24/13 A2988 RMK A01 T02350130  RH  052%=      5-min Rain = 0
KME1 130159Z 22003KT 24/13 A2988 RMK A01 T02350130  RH  052%=      5-min Rain = 0
KME1 130200Z 20003KT 24/13 A2988 RMK A01 T02350130  RH  052%=      5-min Rain = 0
KME1 130201Z 20003KT 24/13 A2989 RMK A01 T02350130  RH  052%=      5-min Rain = 0
KME1 130202Z 19002KT 23/13 A2989 RMK A01 T02340130  RH  052%=      5-min Rain = 0
KME1 130203Z 18002KT 23/13 A2989 RMK A01 T02340129  RH  051%=      5-min Rain = 0
KME1 130204Z 18002KT 23/13 A2989 RMK A01 T02340129  RH  052%=      5-min Rain = 0
KME1 130205Z 18002KT 23/13 A2989 RMK A01 T02340128  RH  051%=      5-min Rain = 0
KME1 130206Z 18002KT 23/12 A2989 RMK A01 T02340124  RH  050%=      5-min Rain = 0
KME1 130207Z 18002KT 24/12 A2989 RMK A01 T02350123  RH  050%=      5-min Rain = 0
KME1 130208Z 17002KT 24/12 A2989 RMK A01 T02360123  RH  049%=      5-min Rain = 0
KME1 130209Z 18002KT 24/12 A2989 RMK A01 T02370123  RH  049%=      5-min Rain = 0
KME1 130210Z 17003KT 24/12 A2989 RMK A01 T02390123  RH  048%=      5-min Rain = 0
KME1 130211Z 16003KT 24/12 A2989 RMK A01 T02410123  RH  048%=      5-min Rain = 0
KME1 130212Z 17003KT 24/12 A2989 RMK A01 T02430123  RH  047%=      5-min Rain = 0
KME1 130213Z 18002KT 24/12 A2989 RMK A01 T02440123  RH  047%=      5-min Rain = 0
KME1 130214Z 18003KT 24/12 A2989 RMK A01 T02440124  RH  047%=      5-min Rain = 0
KME1 130215Z 17003KT 24/12 A2989 RMK A01 T02440124  RH  047%=      5-min Rain = 0
KME1 130216Z 18003KT 24/13 A2989 RMK A01 T02440125  RH  047%=      5-min Rain = 0
KME1 130217Z 19003KT 24/12 A2989 RMK A01 T02440124  RH  047%=      5-min Rain = 0
KME1 130218Z 20003KT 24/12 A2989 RMK A01 T02430123  RH  047%=      5-min Rain = 0
KME1 130219Z 19003KT 24/12 A2989 RMK A01 T02430122  RH  047%=      5-min Rain = 0
KME1 130220Z 18003KT 24/12 A2989 RMK A01 T02430122  RH  047%=      5-min Rain = 0
KME1 130221Z 18003KT 24/12 A2989 RMK A01 T02430122  RH  047%=      5-min Rain = 0
KME1 130222Z 17003KT 24/12 A2989 RMK A01 T02430122  RH  047%=      5-min Rain = 0
KME1 130223Z 17002KT 24/12 A2989 RMK A01 T02430121  RH  046%=      5-min Rain = 0
KME1 130224Z 17003KT 24/12 A2989 RMK A01 T02430120  RH  046%=      5-min Rain = 0
KME1 130225Z 18003KT 24/12 A2989 RMK A01 T02440121  RH  046%=      5-min Rain = 0
KME1 130226Z 20002KT 24/12 A2989 RMK A01 T02440121  RH  046%=      5-min Rain = 0
KME1 130227Z 20003KT 24/12 A2989 RMK A01 T02440123  RH  047%=      5-min Rain = 0
KME1 130228Z 21003KT 24/12 A2989 RMK A01 T02440124  RH  047%=      5-min Rain = 0
KME1 130229Z 21004KT 24/13 A2989 RMK A01 T02430126  RH  048%=      5-min Rain = 0
KME1 130230Z 21004KT 24/13 A2989 RMK A01 T02410127  RH  049%=      5-min Rain = 0
KME1 130231Z 21004KT 24/13 A2989 RMK A01 T02400127  RH  049%=      5-min Rain = 0
KME1 130232Z 21004KT 24/13 A2989 RMK A01 T02380126  RH  049%=      5-min Rain = 0
KME1 130233Z 22004KT 24/13 A2989 RMK A01 T02360126  RH  050%=      5-min Rain = 0
KME1 130234Z 22004KT 24/13 A2989 RMK A01 T02350126  RH  050%=      5-min Rain = 0
KME1 130235Z 22004KT 23/13 A2989 RMK A01 T02330126  RH  051%=      5-min Rain = 0
KME1 130236Z 22004KT 23/12 A2989 RMK A01 T02330124  RH  051%=      5-min Rain = 0
KME1 130237Z 22004KT 23/12 A2989 RMK A01 T02320124  RH  050%=      5-min Rain = 0
KME1 130238Z 22004KT 23/12 A2989 RMK A01 T02310124  RH  051%=      5-min Rain = 0
KME1 130239Z 22003KT 23/12 A2989 RMK A01 T02310124  RH  051%=      5-min Rain = 0
KME1 130240Z 21003KT 23/12 A2989 RMK A01 T02300124  RH  051%=      5-min Rain = 0
KME1 130241Z 21003KT 23/12 A2989 RMK A01 T02300124  RH  051%=      5-min Rain = 0
KME1 130242Z 20003KT 23/12 A2989 RMK A01 T02290123  RH  051%=      5-min Rain = 0
KME1 130243Z 20003KT 23/12 A2989 RMK A01 T02290122  RH  051%=      5-min Rain = 0
KME1 130244Z 21003KT 23/12 A2989 RMK A01 T02290119  RH  050%=      5-min Rain = 0
KME1 130245Z 21003KT 23/12 A2989 RMK A01 T02300119  RH  050%=      5-min Rain = 0
KME1 130246Z 21003KT 23/12 A2989 RMK A01 T02310119  RH  049%=      5-min Rain = 0
KME1 130247Z 21003KT 23/12 A2989 RMK A01 T02330119  RH  049%=      5-min Rain = 0
KME1 130248Z 22003KT 23/12 A2989 RMK A01 T02340119  RH  048%=      5-min Rain = 0
KME1 130249Z 21003KT 24/12 A2989 RMK A01 T02350120  RH  048%=      5-min Rain = 0
KME1 130250Z 22003KT 24/12 A2989 RMK A01 T02350120  RH  048%=      5-min Rain = 0
KME1 130251Z 22003KT 24/12 A2989 RMK A01 T02350120  RH  048%=      5-min Rain = 0
KME1 130252Z 22003KT 24/12 A2989 RMK A01 T02350121  RH  049%=      5-min Rain = 0
KME1 130253Z 22003KT 24/12 A299 RMK A01 T02350123  RH  049%=      5-min Rain = 0
KME1 130254Z 22003KT 23/13 A299 RMK A01 T02340128  RH  051%=      5-min Rain = 0
KME1 130255Z 22003KT 23/13 A299 RMK A01 T02320125  RH  051%=      5-min Rain = 0
KME1 130256Z 22003KT 23/12 A299 RMK A01 T02310124  RH  051%=      5-min Rain = 0
KME1 130257Z 22003KT 23/13 A299 RMK A01 T02290126  RH  052%=      5-min Rain = 0
KME1 130258Z 22003KT 23/12 A299 RMK A01 T02270124  RH  052%=      5-min Rain = 0
KME1 130259Z 22003KT 23/12 A299 RMK A01 T02260124  RH  053%=      5-min Rain = 0
KME1 130300Z 22003KT 23/12 A2989 RMK A01 T02250123  RH  053%=      5-min Rain = 0
KME1 130301Z 22003KT 22/13 A299 RMK A01 T02240125  RH  053%=      5-min Rain = 0
KME1 130302Z 22003KT 22/12 A299 RMK A01 T02230122  RH  053%=      5-min Rain = 0
KME1 130303Z 22003KT 22/12 A299 RMK A01 T02230123  RH  053%=      5-min Rain = 0
KME1 130304Z 21003KT 22/12 A299 RMK A01 T02220121  RH  053%=      5-min Rain = 0
KME1 130305Z 21003KT 22/13 A299 RMK A01 T02220126  RH  055%=      5-min Rain = 0
KME1 130306Z 21003KT 22/13 A299 RMK A01 T02210128  RH  055%=      5-min Rain = 0
KME1 130307Z 22003KT 22/13 A299 RMK A01 T02200132  RH  057%=      5-min Rain = 0
KME1 130308Z 22003KT 22/13 A299 RMK A01 T02190126  RH  056%=      5-min Rain = 0
KME1 130309Z 22004KT 22/12 A299 RMK A01 T02180121  RH  054%=      5-min Rain = 0
KME1 130310Z 22004KT 22/12 A299 RMK A01 T02190118  RH  053%=      5-min Rain = 0
KME1 130311Z 22004KT 22/12 A299 RMK A01 T02210118  RH  052%=      5-min Rain = 0
KME1 130312Z 22005KT 22/12 A299 RMK A01 T02220119  RH  052%=      5-min Rain = 0
KME1 130313Z 22005KT 22/12 A299 RMK A01 T02230119  RH  052%=      5-min Rain = 0
KME1 130314Z 22005KT 22/12 A299 RMK A01 T02240120  RH  052%=      5-min Rain = 0
KME1 130315Z 22005KT 22/12 A299 RMK A01 T02240120  RH  052%=      5-min Rain = 0
KME1 130316Z 22005KT 22/12 A299 RMK A01 T02240121  RH  052%=      5-min Rain = 0
KME1 130317Z 22005KT 22/12 A299 RMK A01 T02240119  RH  052%=      5-min Rain = 0
KME1 130318Z 22005KT 22/12 A299 RMK A01 T02240119  RH  052%=      5-min Rain = 0
KME1 130319Z 22004KT 22/12 A299 RMK A01 T02240119  RH  051%=      5-min Rain = 0
KME1 130320Z 22005KT 22/12 A299 RMK A01 T02240119  RH  051%=      5-min Rain = 0
KME1 130321Z 21005KT 23/12 A299 RMK A01 T02250120  RH  051%=      5-min Rain = 0
KME1 130322Z 21004KT 23/12 A299 RMK A01 T02250121  RH  052%=      5-min Rain = 0
KME1 130323Z 21004KT 23/12 A299 RMK A01 T02260121  RH  051%=      5-min Rain = 0
KME1 130324Z 21004KT 23/12 A299 RMK A01 T02250120  RH  052%=      5-min Rain = 0
KME1 130325Z 20004KT 23/12 A299 RMK A01 T02250121  RH  052%=      5-min Rain = 0
KME1 130326Z 20004KT 22/12 A299 RMK A01 T02240122  RH  052%=      5-min Rain = 0
KME1 130327Z 20003KT 22/12 A299 RMK A01 T02230122  RH  053%=      5-min Rain = 0
KME1 130328Z 21003KT 22/12 A299 RMK A01 T02220123  RH  053%=      5-min Rain = 0
KME1 130329Z 22003KT 22/12 A299 RMK A01 T02210124  RH  054%=      5-min Rain = 0
KME1 130330Z 22003KT 22/12 A299 RMK A01 T02210120  RH  053%=      5-min Rain = 0
KME1 130331Z 22003KT 22/12 A299 RMK A01 T02200120  RH  053%=      5-min Rain = 0
KME1 130332Z 22003KT 22/12 A299 RMK A01 T02200120  RH  053%=      5-min Rain = 0
KME1 130333Z 22003KT 22/12 A299 RMK A01 T02190120  RH  053%=      5-min Rain = 0
KME1 130334Z 22003KT 22/12 A299 RMK A01 T02190120  RH  053%=      5-min Rain = 0
KME1 130335Z 23003KT 22/12 A299 RMK A01 T02180121  RH  054%=      5-min Rain = 0
KME1 130336Z 23003KT 22/12 A299 RMK A01 T02180123  RH  055%=      5-min Rain = 0
KME1 130337Z 23002KT 22/13 A299 RMK A01 T02160126  RH  057%=      5-min Rain = 0
KME1 130338Z 23002KT 21/13 A299 RMK A01 T02140127  RH  058%=      5-min Rain = 0
KME1 130339Z 23002KT 21/13 A299 RMK A01 T02120129  RH  059%=      5-min Rain = 0
KME1 130340Z 22002KT 21/13 A299 RMK A01 T02090128  RH  060%=      5-min Rain = 0
KME1 130341Z 23002KT 21/13 A299 RMK A01 T02060129  RH  061%=      5-min Rain = 0
KME1 130342Z 23001KT 21/13 A299 RMK A01 T02050131  RH  062%=      5-min Rain = 0
KME1 130343Z 23001KT 20/13 A299 RMK A01 T02030130  RH  063%=      5-min Rain = 0
KME1 130344Z 23001KT 20/13 A299 RMK A01 T02010131  RH  064%=      5-min Rain = 0
KME1 130345Z 23001KT 20/13 A299 RMK A01 T02000130  RH  064%=      5-min Rain = 0
KME1 130346Z 23001KT 20/13 A299 RMK A01 T01990129  RH  064%=      5-min Rain = 0
KME1 130347Z 23001KT 20/13 A299 RMK A01 T01990130  RH  064%=      5-min Rain = 0
KME1 130348Z 23001KT 20/13 A299 RMK A01 T01990130  RH  064%=      5-min Rain = 0
KME1 130349Z 23001KT 20/13 A299 RMK A01 T01980129  RH  064%=      5-min Rain = 0
KME1 130350Z 23001KT 20/13 A299 RMK A01 T01980131  RH  065%=      5-min Rain = 0
KME1 130351Z 23001KT 20/13 A299 RMK A01 T01980134  RH  066%=      5-min Rain = 0
KME1 130352Z 23001KT 20/14 A299 RMK A01 T01980135  RH  067%=      5-min Rain = 0
KME1 130353Z 23001KT 20/13 A299 RMK A01 T01970134  RH  067%=      5-min Rain = 0
KME1 130354Z 23001KT 20/13 A299 RMK A01 T01960134  RH  067%=      5-min Rain = 0
KME1 130355Z 21000KT 20/13 A299 RMK A01 T01950133  RH  067%=      5-min Rain = 0
KME1 130356Z 19001KT 19/13 A299 RMK A01 T01940132  RH  067%=      5-min Rain = 0
KME1 130357Z 18001KT 19/13 A299 RMK A01 T01930132  RH  068%=      5-min Rain = 0
KME1 130358Z 18001KT 19/13 A299 RMK A01 T01920132  RH  068%=      5-min Rain = 0
KME1 130359Z 17000KT 19/13 A299 RMK A01 T01910132  RH  068%=      5-min Rain = 0
KME1 130400Z 17001KT 19/13 A299 RMK A01 T01900131  RH  068%=      5-min Rain = 0
KME1 130401Z 17001KT 19/13 A299 RMK A01 T01900131  RH  068%=      5-min Rain = 0
KME1 130402Z 17000KT 19/13 A299 RMK A01 T01890130  RH  069%=      5-min Rain = 0
KME1 130403Z 09001KT 19/13 A299 RMK A01 T01880130  RH  069%=      5-min Rain = 0
KME1 130404Z 07002KT 19/13 A299 RMK A01 T01870130  RH  069%=      5-min Rain = 0
KME1 130405Z 05003KT 19/13 A299 RMK A01 T01850129  RH  070%=      5-min Rain = 0
KME1 130406Z 03003KT 18/13 A299 RMK A01 T01840129  RH  070%=      5-min Rain = 0
KME1 130407Z 02003KT 18/13 A299 RMK A01 T01830128  RH  070%=      5-min Rain = 0
KME1 130408Z 02003KT 18/13 A299 RMK A01 T01830128  RH  070%=      5-min Rain = 0
KME1 130409Z 02003KT 18/13 A299 RMK A01 T01830128  RH  070%=      5-min Rain = 0
KME1 130410Z 02003KT 18/13 A299 RMK A01 T01830128  RH  070%=      5-min Rain = 0
KME1 130411Z 03002KT 18/13 A299 RMK A01 T01830128  RH  070%=      5-min Rain = 0
KME1 130412Z 03002KT 18/13 A299 RMK A01 T01830129  RH  071%=      5-min Rain = 0
KME1 130413Z 02002KT 18/13 A299 RMK A01 T01830129  RH  071%=      5-min Rain = 0
KME1 130414Z 03002KT 18/13 A299 RMK A01 T01830129  RH  071%=      5-min Rain = 0
KME1 130415Z 04003KT 18/13 A299 RMK A01 T01830129  RH  071%=      5-min Rain = 0
KME1 130416Z 04003KT 18/13 A299 RMK A01 T01830128  RH  070%=      5-min Rain = 0
KME1 130417Z 04004KT 18/13 A299 RMK A01 T01840127  RH  070%=      5-min Rain = 0
KME1 130418Z 04004KT 19/13 A299 RMK A01 T01850127  RH  069%=      5-min Rain = 0
KME1 130419Z 04004KT 19/13 A299 RMK A01 T01850127  RH  069%=      5-min Rain = 0
KME1 130420Z 05004KT 19/13 A299 RMK A01 T01860127  RH  068%=      5-min Rain = 0
KME1 130421Z 05004KT 19/13 A299 RMK A01 T01860127  RH  068%=      5-min Rain = 0
KME1 130422Z 06004KT 19/13 A299 RMK A01 T01860126  RH  068%=      5-min Rain = 0
KME1 130423Z 06004KT 19/13 A299 RMK A01 T01860126  RH  068%=      5-min Rain = 0
KME1 130424Z 06004KT 19/13 A2991 RMK A01 T01870126  RH  068%=      5-min Rain = 0
KME1 130425Z 06004KT 19/13 A2991 RMK A01 T01870127  RH  068%=      5-min Rain = 0
KME1 130426Z 06003KT 19/13 A2991 RMK A01 T01870127  RH  068%=      5-min Rain = 0
KME1 130427Z 06002KT 19/13 A2991 RMK A01 T01870126  RH  068%=      5-min Rain = 0
KME1 130428Z 07002KT 19/13 A2991 RMK A01 T01870126  RH  068%=      5-min Rain = 0
KME1 130429Z 07001KT 19/13 A2991 RMK A01 T01870127  RH  068%=      5-min Rain = 0
KME1 130430Z 06001KT 19/13 A2991 RMK A01 T01870126  RH  067%=      5-min Rain = 0
KME1 130431Z 06000KT 19/13 A2991 RMK A01 T01880126  RH  067%=      5-min Rain = 0
KME1 130432Z 00000KT 19/13 A2991 RMK A01 T01890127  RH  067%=      5-min Rain = 0
KME1 130433Z 00000KT 19/13 A2991 RMK A01 T01900127  RH  067%=      5-min Rain = 0
KME1 130434Z 00000KT 19/13 A2991 RMK A01 T01900127  RH  067%=      5-min Rain = 0
KME1 130435Z 00000KT 19/13 A2991 RMK A01 T01900127  RH  067%=      5-min Rain = 0
KME1 130436Z 00000KT 19/13 A2991 RMK A01 T01890127  RH  067%=      5-min Rain = 0
KME1 130437Z 00000KT 19/13 A2991 RMK A01 T01890131  RH  069%=      5-min Rain = 0
KME1 130438Z 00000KT 19/13 A2991 RMK A01 T01880132  RH  070%=      5-min Rain = 0
KME1 130439Z 00000KT 19/13 A2991 RMK A01 T01880130  RH  069%=      5-min Rain = 0
KME1 130440Z 00000KT 19/13 A2991 RMK A01 T01870129  RH  069%=      5-min Rain = 0
KME1 130441Z 00000KT 19/13 A2991 RMK A01 T01870131  RH  070%=      5-min Rain = 0
KME1 130442Z 00000KT 19/13 A2991 RMK A01 T01860132  RH  071%=      5-min Rain = 0
KME1 130443Z 00000KT 19/13 A2991 RMK A01 T01860131  RH  071%=      5-min Rain = 0
KME1 130444Z 00000KT 19/13 A2991 RMK A01 T01850129  RH  070%=      5-min Rain = 0
KME1 130445Z 00000KT 18/13 A2991 RMK A01 T01840128  RH  070%=      5-min Rain = 0
KME1 130446Z 00000KT 18/13 A2991 RMK A01 T01840128  RH  070%=      5-min Rain = 0
KME1 130447Z 00000KT 18/13 A2991 RMK A01 T01830128  RH  070%=      5-min Rain = 0
KME1 130448Z 00000KT 18/13 A2991 RMK A01 T01830128  RH  070%=      5-min Rain = 0
KME1 130449Z 00000KT 18/13 A2991 RMK A01 T01820127  RH  070%=      5-min Rain = 0
KME1 130450Z 18000KT 18/13 A2991 RMK A01 T01820127  RH  070%=      5-min Rain = 0
KME1 130451Z 20001KT 18/13 A2991 RMK A01 T01810125  RH  070%=      5-min Rain = 0
KME1 130452Z 21001KT 18/12 A299 RMK A01 T01810123  RH  069%=      5-min Rain = 0
KME1 130453Z 20002KT 18/12 A299 RMK A01 T01810122  RH  068%=      5-min Rain = 0
KME1 130454Z 21002KT 18/12 A299 RMK A01 T01820123  RH  068%=      5-min Rain = 0
KME1 130455Z 21003KT 18/13 A299 RMK A01 T01830125  RH  069%=      5-min Rain = 0
KME1 130456Z 22003KT 18/13 A299 RMK A01 T01830125  RH  069%=      5-min Rain = 0
KME1 130457Z 22003KT 18/12 A299 RMK A01 T01830124  RH  068%=      5-min Rain = 0
KME1 130458Z 21003KT 18/12 A299 RMK A01 T01830121  RH  067%=      5-min Rain = 0
KME1 130459Z 22003KT 19/12 A299 RMK A01 T01850120  RH  066%=      5-min Rain = 0

Page generated in 0.1216 seconds.